M I D A S
Marine Information and Data Acquisition System
Tripno 1824 of the Zeeleeuw from 2009-12-10 09:05:04 to 2009-12-10 17:14:51
Back to CruiseResearch ActivitiesStationsMapUnderway DataData graphs

EquipmentUnitsComment
TimeDGPSUTC
LatitudeDGPSDM.mWGS84
LongitudeDGPSDM.mWGS84
TemperatureSBE03/SBE38deg celciusITS90
ConductivitySBE21S/mITS90
SalinitySBE21 Practical Salinity Units
ChlorophylAChelsea fluorimeterg/lCalibrated in Aceton
Missing or incorrect values are displayed as -999
Sea surface data collected by the RV Zeeleeuw from 2009-12-10 09:10:59 to 2009-12-10 17:22:13
                                                                                    Next 1000 lines
Time Latitude Longitude Temperature Conductivity Salinity ChlorophylA
2009-12-10 09:11:08 51°13.662 2°55.955 17.2936 3.707335 26.519532 0.044153
2009-12-10 09:11:14 51°13.663 2°55.952 17.3027 3.707335 26.519041 0.044153
2009-12-10 09:11:19 51°13.664 2°55.948 17.299 3.707439 26.519372 0.044153
2009-12-10 09:11:24 51°13.665 2°55.944 17.3042 3.707439 26.519863 0.044153
2009-12-10 09:11:30 51°13.667 2°55.939 17.3058 3.707439 26.519372 0.044153
2009-12-10 09:11:35 51°13.668 2°55.934 17.2828 3.707542 26.519703 0.044153
2009-12-10 09:11:41 51°13.67 2°55.928 17.302 3.707542 26.519703 0.044153
2009-12-10 09:11:47 51°13.672 2°55.921 17.3195 3.707542 26.519703 0.044153
2009-12-10 09:11:52 51°13.674 2°55.915 17.3397 3.707542 26.519211 0.044153
2009-12-10 09:11:57 51°13.676 2°55.909 17.2931 3.707542 26.519211 0.044153
2009-12-10 09:12:02 51°13.678 2°55.902 17.3205 3.707646 26.519542 0.044153
2009-12-10 09:12:07 51°13.68 2°55.895 17.3388 3.707646 26.519542 0.044153
2009-12-10 09:12:12 51°13.682 2°55.887 17.3107 3.707646 26.519542 0.044153
2009-12-10 09:12:17 51°13.684 2°55.879 17.3236 3.707646 26.519051 0.044153
2009-12-10 09:12:23 51°13.687 2°55.869 17.3024 3.707646 26.519051 0.044153
2009-12-10 09:12:27 51°13.689 2°55.862 17.306 3.70775 26.519382 0.044153
2009-12-10 09:12:32 51°13.692 2°55.854 17.2994 3.70775 26.519873 0.044153
2009-12-10 09:12:37 51°13.695 2°55.845 17.3109 3.70775 26.519382 0.044153
2009-12-10 09:12:43 51°13.699 2°55.835 17.3163 3.70775 26.519382 0.044153
2009-12-10 09:12:47 51°13.701 2°55.829 17.3225 3.707853 26.519713 0.044153
2009-12-10 09:12:52 51°13.705 2°55.82 17.3047 3.707853 26.519713 0.044153
2009-12-10 09:12:58 51°13.709 2°55.811 17.3146 3.707853 26.519222 0.044153
2009-12-10 09:13:03 51°13.712 2°55.803 17.2969 3.707853 26.519222 0.044153
2009-12-10 09:13:07 51°13.715 2°55.796 17.2953 3.707853 26.518239 0.044153
2009-12-10 09:13:12 51°13.718 2°55.788 17.3316 3.707853 26.518239 0.044153
2009-12-10 09:13:18 51°13.722 2°55.778 17.3392 3.707853 26.518239 0.044153
2009-12-10 09:13:23 51°13.726 2°55.771 17.3061 3.707853 26.518239 0.044153
2009-12-10 09:13:27 51°13.729 2°55.764 17.3145 3.707957 26.518079 0.044153
2009-12-10 09:13:32 51°13.732 2°55.757 17.3225 3.707957 26.518079 0.044153
2009-12-10 09:13:37 51°13.736 2°55.749 17.311 3.707957 26.518079 0.044153
2009-12-10 09:13:43 51°13.741 2°55.74 17.2912 3.707957 26.518079 0.044153
2009-12-10 09:13:47 51°13.744 2°55.735 17.302 3.708061 26.51841 0.044153
2009-12-10 09:13:52 51°13.747 2°55.728 17.2935 3.708061 26.517919 0.044153
2009-12-10 09:13:57 51°13.751 2°55.721 17.2812 3.708061 26.517919 0.044153
2009-12-10 09:14:02 51°13.755 2°55.714 17.3014 3.708061 26.517919 0.044153
2009-12-10 09:14:07 51°13.759 2°55.708 17.2698 3.708164 26.51825 0.044153
2009-12-10 09:14:12 51°13.764 2°55.701 17.2387 3.708164 26.51825 0.044153
2009-12-10 09:14:17 51°13.768 2°55.695 17.286 3.708164 26.51825 0.044153
2009-12-10 09:14:22 51°13.772 2°55.689 17.2996 3.708164 26.51825 0.044153
2009-12-10 09:14:27 51°13.777 2°55.683 17.2827 3.708268 26.519072 0.044153
2009-12-10 09:14:32 51°13.782 2°55.678 17.2735 3.708268 26.519072 0.044153
2009-12-10 09:14:38 51°13.788 2°55.671 17.2784 3.708372 26.519403 0.044153
2009-12-10 09:14:42 51°13.793 2°55.667 17.2533 3.708372 26.519403 0.044153
2009-12-10 09:14:47 51°13.798 2°55.662 17.2283 3.708372 26.519403 0.044153
2009-12-10 09:14:52 51°13.804 2°55.657 17.265 3.708475 26.519734 0.044153
2009-12-10 09:14:58 51°13.811 2°55.652 17.2632 3.708475 26.519734 0.044153
2009-12-10 09:15:03 51°13.817 2°55.648 17.2772 3.708475 26.519734 0.044153
2009-12-10 09:15:07 51°13.822 2°55.645 17.2603 3.708579 26.520065 0.044153
2009-12-10 09:15:12 51°13.829 2°55.641 17.2485 3.708579 26.520065 0.044153
2009-12-10 09:15:18 51°13.837 2°55.637 17.2535 3.708579 26.519573 0.044153
2009-12-10 09:15:23 51°13.843 2°55.634 17.2901 3.708579 26.519082 0.044153
2009-12-10 09:15:27 51°13.849 2°55.632 17.2754 3.708579 26.519082 0.044153
2009-12-10 09:15:32 51°13.855 2°55.63 17.249 3.708682 26.519413 0.044153
2009-12-10 09:15:38 51°13.863 2°55.627 17.2861 3.708682 26.518922 0.044153
2009-12-10 09:15:43 51°13.869 2°55.626 17.2713 3.708682 26.518922 0.044153
2009-12-10 09:15:47 51°13.874 2°55.625 17.2928 3.708682 26.518922 0.044153
2009-12-10 09:15:52 51°13.88 2°55.624 17.2186 3.708682 26.518922 0.044153
2009-12-10 09:15:57 51°13.885 2°55.624 17.2259 3.708786 26.519744 0.044153
2009-12-10 09:16:03 51°13.891 2°55.623 17.281 3.708682 26.518431 0.044153
2009-12-10 09:16:07 51°13.896 2°55.624 17.2293 3.708786 26.519744 0.044153
2009-12-10 09:16:12 51°13.9 2°55.624 17.2057 3.708786 26.519744 0.044153
2009-12-10 09:16:17 51°13.905 2°55.625 17.2507 3.708786 26.519253 0.044153
2009-12-10 09:16:23 51°13.911 2°55.626 17.2275 3.70889 26.520075 0.044153
2009-12-10 09:16:27 51°13.914 2°55.626 17.2736 3.70889 26.519584 0.044153
2009-12-10 09:16:32 51°13.918 2°55.627 17.2601 3.70889 26.519584 0.044153
2009-12-10 09:16:37 51°13.922 2°55.628 17.2242 3.70889 26.519093 0.044153
2009-12-10 09:16:42 51°13.925 2°55.629 17.2423 3.70889 26.519093 0.044153
2009-12-10 09:16:47 51°13.929 2°55.631 17.2559 3.708993 26.519424 0.044153
2009-12-10 09:16:52 51°13.932 2°55.632 17.2769 3.708993 26.519424 0.044153
2009-12-10 09:16:57 51°13.934 2°55.633 17.2782 3.708993 26.518933 0.044153
2009-12-10 09:17:02 51°13.935 2°55.633 17.2813 3.708786 26.516306 0.044153
2009-12-10 09:17:07 51°13.935 2°55.633 17.1245 3.70889 26.516637 0.044153
2009-12-10 09:17:12 51°13.935 2°55.632 17.1922 3.70889 26.516637 0.044153
2009-12-10 09:17:16 51°13.934 2°55.632 17.2072 3.708993 26.517459 0.044153
2009-12-10 09:17:21 51°13.934 2°55.632 17.1499 3.708993 26.518442 0.044153
2009-12-10 09:17:26 51°13.934 2°55.632 17.2082 3.709097 26.519755 0.044153
2009-12-10 09:17:31 51°13.934 2°55.633 17.1628 3.709304 26.522381 0.044153
2009-12-10 09:17:36 51°13.935 2°55.635 17.1643 3.709408 26.522712 0.044153
2009-12-10 09:17:40 51°13.935 2°55.636 17.217 3.709408 26.522712 0.044153
2009-12-10 09:17:45 51°13.936 2°55.639 17.2275 3.709512 26.522552 0.044153
2009-12-10 09:17:50 51°13.936 2°55.642 17.2144 3.709511 26.522061 0.044153
2009-12-10 09:17:55 51°13.937 2°55.644 17.2655 3.709511 26.521569 0.044153
2009-12-10 09:18:00 51°13.937 2°55.646 17.1826 3.709304 26.519925 0.044153
2009-12-10 09:18:05 51°13.936 2°55.646 17.0806 3.709201 26.517139 0.044153
2009-12-10 09:18:10 51°13.935 2°55.644 17.1141 3.709201 26.517139 0.044153
2009-12-10 09:18:15 51°13.933 2°55.642 17.1436 3.709201 26.516648 0.044153
2009-12-10 09:18:20 51°13.932 2°55.639 17.179 3.709304 26.51747 0.044153
2009-12-10 09:18:24 51°13.931 2°55.636 17.1024 3.709304 26.518452 0.044153
2009-12-10 09:18:29 51°13.93 2°55.631 17.0652 3.709304 26.518943 0.044153
2009-12-10 09:18:34 51°13.93 2°55.626 17.043 3.709304 26.518943 0.044153
2009-12-10 09:18:39 51°13.93 2°55.619 16.9093 3.709304 26.518943 0.044153
2009-12-10 09:18:44 51°13.931 2°55.611 16.9905 3.709304 26.517961 0.044153
2009-12-10 09:18:48 51°13.933 2°55.606 16.9662 3.709304 26.518452 0.044153
2009-12-10 09:18:54 51°13.936 2°55.597 17.0392 3.709408 26.519765 0.044153
2009-12-10 09:18:59 51°13.94 2°55.59 17.1517 3.709304 26.519434 0.044153
2009-12-10 09:19:04 51°13.945 2°55.584 17.1824 3.709511 26.521569 0.044153
2009-12-10 09:19:09 51°13.95 2°55.579 17.1781 3.709511 26.521569 0.044153
2009-12-10 09:19:14 51°13.956 2°55.574 17.1911 3.709615 26.522391 0.044153
2009-12-10 09:19:18 51°13.96 2°55.57 17.1944 3.709615 26.5219 0.044153
2009-12-10 09:19:24 51°13.968 2°55.564 17.2132 3.709511 26.520587 0.044153
2009-12-10 09:19:28 51°13.974 2°55.559 17.1678 3.709511 26.519114 0.044153
2009-12-10 09:19:34 51°13.983 2°55.551 17.1591 3.709511 26.518132 0.044153
2009-12-10 09:19:39 51°13.99 2°55.544 17.1725 3.709511 26.518132 0.044153
2009-12-10 09:19:44 51°13.999 2°55.536 17.1583 3.709511 26.51715 0.044153
2009-12-10 09:19:49 51°14.008 2°55.528 17.1709 3.709511 26.516659 0.044153
2009-12-10 09:19:54 51°14.017 2°55.521 17.1291 3.709615 26.51699 0.044153
2009-12-10 09:19:59 51°14.026 2°55.512 17.1536 3.709615 26.517972 0.044153
2009-12-10 09:20:04 51°14.036 2°55.504 17.1658 3.709719 26.518303 0.044153
2009-12-10 09:20:09 51°14.046 2°55.495 17.1574 3.709719 26.518303 0.044153
2009-12-10 09:20:14 51°14.056 2°55.487 17.1802 3.709719 26.518303 0.044153
2009-12-10 09:20:19 51°14.066 2°55.478 17.1406 3.709719 26.518794 0.044153
2009-12-10 09:20:24 51°14.076 2°55.468 17.0898 3.709822 26.519125 0.044153
2009-12-10 09:20:29 51°14.087 2°55.459 17.1578 3.709926 26.520438 0.044153
2009-12-10 09:20:33 51°14.095 2°55.451 17.1634 3.709926 26.520929 0.044153
2009-12-10 09:20:39 51°14.108 2°55.439 17.0925 3.709926 26.520929 0.044153
2009-12-10 09:20:44 51°14.119 2°55.429 17.1218 3.709926 26.520929 0.044153
2009-12-10 09:20:49 51°14.129 2°55.418 17.133 3.709926 26.519947 0.044153
2009-12-10 09:20:54 51°14.14 2°55.407 17.0244 3.71003 26.520278 0.044153
2009-12-10 09:20:58 51°14.148 2°55.398 17.1188 3.709926 26.518474 0.044153
2009-12-10 09:21:04 51°14.161 2°55.384 17.0933 3.71003 26.519296 0.044153
2009-12-10 09:21:09 51°14.172 2°55.372 17.0478 3.71003 26.519296 0.044153
2009-12-10 09:21:14 51°14.182 2°55.359 17.0592 3.71003 26.518805 0.044153
2009-12-10 09:21:19 51°14.193 2°55.347 17.0841 3.710133 26.519136 0.044153
2009-12-10 09:21:25 51°14.205 2°55.33 17.0562 3.710133 26.520118 0.044153
2009-12-10 09:21:30 51°14.215 2°55.316 17.0363 3.710133 26.519627 0.044153
2009-12-10 09:21:34 51°14.223 2°55.305 17.1053 3.710237 26.520448 0.044153
2009-12-10 09:21:39 51°14.233 2°55.29 17.0384 3.710237 26.520448 0.044153
2009-12-10 09:21:44 51°14.243 2°55.274 17.0713 3.710133 26.519627 0.044153
2009-12-10 09:21:49 51°14.252 2°55.258 17.0326 3.710237 26.520448 0.044153
2009-12-10 09:21:54 51°14.261 2°55.241 17.0253 3.710237 26.519467 0.044153
2009-12-10 09:21:58 51°14.269 2°55.227 16.9554 3.710237 26.519467 0.044153
2009-12-10 09:22:04 51°14.28 2°55.206 17.0287 3.71034 26.519797 0.044153
2009-12-10 09:22:09 51°14.289 2°55.188 16.9792 3.71034 26.519797 0.044153
2009-12-10 09:22:14 51°14.299 2°55.17 17.0013 3.710444 26.520128 0.044153
2009-12-10 09:22:19 51°14.308 2°55.153 16.974 3.710444 26.520619 0.044153
2009-12-10 09:22:24 51°14.318 2°55.134 16.9906 3.710548 26.522914 0.044153
2009-12-10 09:22:29 51°14.327 2°55.116 16.9279 3.710651 26.522263 0.044153
2009-12-10 09:22:34 51°14.337 2°55.098 16.9735 3.710444 26.52111 0.044153
2009-12-10 09:22:39 51°14.347 2°55.08 16.9679 3.710444 26.52111 0.044153
2009-12-10 09:22:44 51°14.356 2°55.062 16.9748 3.710651 26.522754 0.044153
2009-12-10 09:22:49 51°14.365 2°55.043 16.9496 3.710651 26.522263 0.044153
2009-12-10 09:22:54 51°14.374 2°55.025 16.9511 3.710755 26.522103 0.044153
2009-12-10 09:22:59 51°14.384 2°55.008 16.9194 3.710755 26.522103 0.044153
2009-12-10 09:23:04 51°14.394 2°54.991 16.9785 3.710859 26.523906 0.044153
2009-12-10 09:23:09 51°14.403 2°54.973 16.8559 3.710859 26.523906 0.044153
2009-12-10 09:23:14 51°14.413 2°54.957 16.9243 3.710651 26.522263 0.044153
2009-12-10 09:23:18 51°14.422 2°54.944 16.882 3.710859 26.522925 0.044153
2009-12-10 09:23:24 51°14.436 2°54.928 16.893 3.710859 26.522434 0.044153
2009-12-10 09:23:29 51°14.448 2°54.916 16.9363 3.710962 26.522764 0.044153
2009-12-10 09:23:33 51°14.458 2°54.908 16.9498 3.710962 26.523255 0.044153
2009-12-10 09:23:38 51°14.472 2°54.899 16.9597 3.710962 26.523255 0.044153
2009-12-10 09:23:44 51°14.487 2°54.888 16.9012 3.711066 26.526532 0.044153
2009-12-10 09:23:49 51°14.5 2°54.879 16.9156 3.711066 26.526041 0.044153
2009-12-10 09:23:54 51°14.514 2°54.87 16.8954 3.71117 26.526372 0.044153
2009-12-10 09:23:59 51°14.527 2°54.861 16.9133 3.710962 26.524237 0.044153
2009-12-10 09:24:04 51°14.54 2°54.851 16.9152 3.710962 26.522764 0.044153
2009-12-10 09:24:09 51°14.553 2°54.841 16.9056 3.710962 26.522764 0.044153
2009-12-10 09:24:14 51°14.566 2°54.831 16.8858 3.710962 26.522274 0.044153
2009-12-10 09:24:19 51°14.579 2°54.821 16.9144 3.71117 26.523917 0.044153
2009-12-10 09:24:24 51°14.592 2°54.811 16.8787 3.711066 26.522604 0.044153
2009-12-10 09:24:29 51°14.604 2°54.801 16.8582 3.71117 26.524899 0.044153
2009-12-10 09:24:34 51°14.618 2°54.792 16.9132 3.711066 26.523586 0.044153
2009-12-10 09:24:39 51°14.63 2°54.78 16.8839 3.711066 26.523586 0.044153
2009-12-10 09:24:44 51°14.643 2°54.77 16.9054 3.71117 26.523426 0.044153
2009-12-10 09:24:49 51°14.655 2°54.759 16.9088 3.711273 26.524248 0.044153
2009-12-10 09:24:54 51°14.669 2°54.749 16.8871 3.711273 26.524248 0.044153
2009-12-10 09:24:59 51°14.681 2°54.738 16.8755 3.711273 26.523757 0.044153
2009-12-10 09:25:04 51°14.694 2°54.727 16.8859 3.711481 26.5254 0.044153
2009-12-10 09:25:09 51°14.707 2°54.716 16.8633 3.711481 26.5254 0.044153
2009-12-10 09:25:14 51°14.721 2°54.705 16.8946 3.71117 26.522444 0.044153
2009-12-10 09:25:19 51°14.734 2°54.695 16.9326 3.711688 26.527535 0.044153
2009-12-10 09:25:24 51°14.746 2°54.684 16.8812 3.711791 26.527865 0.218274
2009-12-10 09:25:29 51°14.759 2°54.676 16.9292 3.711895 26.529669 0.18345
2009-12-10 09:25:35 51°14.774 2°54.663 16.9173 3.711895 26.529178 0.18345
2009-12-10 09:25:40 51°14.787 2°54.654 16.906 3.711895 26.529178 0.18345
2009-12-10 09:25:45 51°14.799 2°54.643 16.9065 3.711791 26.527865 0.18345
2009-12-10 09:25:50 51°14.812 2°54.633 16.8691 3.711791 26.527865 0.18345
2009-12-10 09:25:54 51°14.822 2°54.624 16.8912 3.711688 26.526553 0.18345
2009-12-10 09:25:59 51°14.835 2°54.614 16.8542 3.712102 26.529349 0.148626
2009-12-10 09:26:04 51°14.847 2°54.605 16.9083 3.711584 26.525731 0.148626
2009-12-10 09:26:10 51°14.861 2°54.593 16.8565 3.711584 26.525731 0.148626
2009-12-10 09:26:15 51°14.873 2°54.582 16.8903 3.711999 26.529018 0.148626
2009-12-10 09:26:20 51°14.885 2°54.573 16.8623 3.711481 26.523437 0.148626
2009-12-10 09:26:25 51°14.897 2°54.562 16.873 3.71231 26.530992 0.148626
2009-12-10 09:26:30 51°14.909 2°54.553 16.8843 3.711791 26.526393 0.148626
2009-12-10 09:26:35 51°14.922 2°54.543 16.8816 3.712102 26.527876 0.148626
2009-12-10 09:26:39 51°14.931 2°54.535 16.8512 3.712102 26.527876 0.148626
2009-12-10 09:26:44 51°14.944 2°54.525 16.8783 3.711999 26.527545 0.148626
2009-12-10 09:26:49 51°14.956 2°54.514 16.8755 3.711895 26.527214 0.148626
2009-12-10 09:26:54 51°14.969 2°54.504 16.8434 3.71231 26.530992 0.148626
2009-12-10 09:26:59 51°14.981 2°54.494 16.8716 3.712102 26.529349 0.113802
2009-12-10 09:27:04 51°14.994 2°54.483 16.8676 3.712102 26.528858 0.148626
2009-12-10 09:27:09 51°15.006 2°54.472 16.8724 3.712102 26.528858 0.148626
2009-12-10 09:27:14 51°15.019 2°54.462 16.8713 3.712206 26.529188 0.148626
2009-12-10 09:27:19 51°15.032 2°54.45 16.8552 3.711999 26.527054 0.148626
2009-12-10 09:27:24 51°15.045 2°54.439 16.8748 3.712413 26.530341 0.113802
2009-12-10 09:27:29 51°15.058 2°54.428 16.8712 3.712102 26.527876 0.113802
2009-12-10 09:27:34 51°15.071 2°54.417 16.8544 3.71231 26.529519 0.148626
2009-12-10 09:27:39 51°15.083 2°54.406 16.8622 3.71231 26.529519 0.148626
2009-12-10 09:27:44 51°15.097 2°54.395 16.8639 3.712517 26.530181 0.148626
2009-12-10 09:27:49 51°15.109 2°54.384 16.8487 3.712102 26.527876 0.148626
2009-12-10 09:27:54 51°15.122 2°54.373 16.8548 3.712621 26.532475 0.113802
2009-12-10 09:27:59 51°15.135 2°54.362 16.8605 3.712413 26.530341 0.113802
2009-12-10 09:28:04 51°15.148 2°54.35 16.8622 3.712517 26.530671 0.148626
2009-12-10 09:28:09 51°15.161 2°54.339 16.8701 3.712517 26.530671 0.148626
2009-12-10 09:28:14 51°15.174 2°54.328 16.8622 3.712621 26.531493 0.148626
2009-12-10 09:28:19 51°15.186 2°54.317 16.8531 3.712413 26.52985 0.148626
2009-12-10 09:28:24 51°15.199 2°54.305 16.8723 3.712724 26.531824 0.148626
2009-12-10 09:28:29 51°15.212 2°54.294 16.8589 3.712932 26.533467 0.148626
2009-12-10 09:28:34 51°15.225 2°54.282 16.8504 3.712413 26.529359 0.148626
2009-12-10 09:28:39 51°15.239 2°54.271 16.865 3.712413 26.529359 0.148626
2009-12-10 09:28:44 51°15.252 2°54.26 16.8631 3.712621 26.530511 0.148626
2009-12-10 09:28:48 51°15.262 2°54.251 16.8525 3.712724 26.531824 0.113802
2009-12-10 09:28:54 51°15.277 2°54.236 16.8683 3.712724 26.531333 0.148626
2009-12-10 09:28:59 51°15.29 2°54.225 16.8548 3.712828 26.532645 0.148626
2009-12-10 09:29:04 51°15.303 2°54.213 16.8698 3.712828 26.532154 0.148626
2009-12-10 09:29:09 51°15.316 2°54.201 16.8638 3.712828 26.532154 0.148626
2009-12-10 09:29:14 51°15.329 2°54.19 16.8553 3.712724 26.531824 0.148626
2009-12-10 09:29:19 51°15.342 2°54.178 15.1245 3.713346 26.536754 0.148626
2009-12-10 09:29:24 51°15.354 2°54.167 13.5624 3.33218 23.328963 0.287922
2009-12-10 09:29:29 51°15.367 2°54.156 12.698 3.717388 26.535415 0.18345
2009-12-10 09:29:34 51°15.38 2°54.144 11.9957 3.237225 22.725938 0.810283
2009-12-10 09:29:39 51°15.392 2°54.133 11.323 3.237225 22.725938 0.810283
2009-12-10 09:29:44 51°15.405 2°54.122 11.1249 3.652723 26.389634 0.462042
2009-12-10 09:29:49 51°15.417 2°54.112 10.968 3.748711 27.902671 0.218274
2009-12-10 09:29:54 51°15.43 2°54.101 10.7809 3.829482 29.529066 -0.095143
2009-12-10 09:29:58 51°15.44 2°54.092 10.6653 3.769477 30.081975 -0.129967
2009-12-10 09:30:03 51°15.452 2°54.08 10.7243 3.679416 30.023494 -0.129967
2009-12-10 09:30:08 51°15.465 2°54.069 10.6965 3.679416 30.023494 -0.129967
2009-12-10 09:30:13 51°15.477 2°54.057 10.5402 3.659631 30.560201 -0.129967
2009-12-10 09:30:18 51°15.49 2°54.045 10.5378 3.652282 31.110315 -0.129967
2009-12-10 09:30:24 51°15.506 2°54.032 10.4999 3.62752 31.267809 -0.164791
2009-12-10 09:30:29 51°15.518 2°54.02 10.5089 3.622446 31.523389 -0.164791
2009-12-10 09:30:34 51°15.531 2°54.008 10.4406 3.612604 31.644155 -0.199615
2009-12-10 09:30:38 51°15.541 2°53.999 10.4092 3.612604 31.644155 -0.199615
2009-12-10 09:30:43 51°15.554 2°53.988 10.3862 3.60442 31.706844 -0.164791
2009-12-10 09:30:48 51°15.567 2°53.976 10.353 3.599966 31.778776 -0.199615
2009-12-10 09:30:54 51°15.582 2°53.962 10.3544 3.593231 31.813624 -0.199615
2009-12-10 09:30:59 51°15.595 2°53.95 10.3164 3.59002 31.862861 -0.199615
2009-12-10 09:31:03 51°15.605 2°53.94 10.3237 3.587223 31.884249 -0.199615
2009-12-10 09:31:08 51°15.618 2°53.928 10.3057 3.587223 31.884249 -0.199615
2009-12-10 09:31:14 51°15.634 2°53.915 10.2922 3.586809 31.932367 -0.199615
2009-12-10 09:31:19 51°15.647 2°53.903 10.2826 3.586603 31.984251 -0.199615
2009-12-10 09:31:23 51°15.657 2°53.894 10.2771 3.582355 31.979973 -0.199615
2009-12-10 09:31:29 51°15.673 2°53.881 10.2794 3.580904 31.989548 -0.199615
2009-12-10 09:31:34 51°15.686 2°53.87 10.2791 3.580698 32.02002 -0.199615
2009-12-10 09:31:39 51°15.7 2°53.859 10.2629 3.580698 32.02002 -0.199615
2009-12-10 09:31:43 51°15.71 2°53.85 10.265 3.583496 32.071122 -0.199615
2009-12-10 09:31:49 51°15.725 2°53.838 10.2383 3.583807 32.091324 -0.199615
2009-12-10 09:31:54 51°15.738 2°53.826 10.2238 3.586605 32.137092 -0.199615
2009-12-10 09:31:59 51°15.75 2°53.816 10.2331 3.586398 32.145949 -0.199615
2009-12-10 09:32:04 51°15.763 2°53.805 10.2156 3.587849 32.178367 -0.199615
2009-12-10 09:32:08 51°15.773 2°53.796 10.2073 3.587849 32.178367 -0.199615
2009-12-10 09:32:14 51°15.789 2°53.783 10.1963 3.587331 32.184147 -0.199615
2009-12-10 09:32:18 51°15.799 2°53.774 10.1883 3.587745 32.20863 -0.199615
2009-12-10 09:32:23 51°15.812 2°53.763 10.2017 3.590232 32.240501 -0.199615
2009-12-10 09:32:29 51°15.827 2°53.749 10.1926 3.589611 32.24763 -0.199615
2009-12-10 09:32:34 51°15.84 2°53.738 10.1909 3.590751 32.268435 -0.199615
2009-12-10 09:32:38 51°15.85 2°53.729 10.1786 3.590751 32.268435 -0.199615
2009-12-10 09:32:43 51°15.863 2°53.718 10.1614 3.589922 32.271153 -0.199615
2009-12-10 09:32:48 51°15.877 2°53.708 10.1909 3.592513 32.313563 -0.199615
2009-12-10 09:32:54 51°15.892 2°53.694 10.1898 3.59386 32.336487 -0.199615
2009-12-10 09:32:59 51°15.905 2°53.683 10.1693 3.594896 32.351582 -0.199615
2009-12-10 09:33:03 51°15.915 2°53.675 10.1766 3.601114 32.419317 -0.199615
2009-12-10 09:33:08 51°15.928 2°53.664 10.157 3.601114 32.419317 -0.199615
2009-12-10 09:33:14 51°15.944 2°53.651 10.1512 3.601839 32.436068 -0.199615
2009-12-10 09:33:19 51°15.956 2°53.64 10.1429 3.603912 32.470281 -0.199615
2009-12-10 09:33:23 51°15.967 2°53.631 10.1359 3.603187 32.463016 -0.199615
2009-12-10 09:33:28 51°15.98 2°53.62 10.1534 3.603601 32.468752 -0.199615
2009-12-10 09:33:33 51°15.993 2°53.609 10.1306 3.604845 32.485965 -0.199615
2009-12-10 09:33:39 51°16.008 2°53.596 10.1325 3.604845 32.485965 -0.199615
2009-12-10 09:33:44 51°16.021 2°53.585 10.1284 3.606088 32.507152 -0.199615
2009-12-10 09:33:49 51°16.034 2°53.575 10.1231 3.607021 32.525235 -0.199615
2009-12-10 09:33:54 51°16.045 2°53.564 10.1288 3.608886 32.553476 -0.199615
2009-12-10 09:33:59 51°16.058 2°53.553 10.1266 3.609612 32.565525 -0.199615
2009-12-10 09:34:04 51°16.071 2°53.542 10.1192 3.611374 32.589567 -0.199615
2009-12-10 09:34:09 51°16.084 2°53.531 10.1039 3.611374 32.589567 -0.199615
2009-12-10 09:34:14 51°16.096 2°53.52 10.1138 3.613032 32.610986 -0.199615
2009-12-10 09:34:18 51°16.106 2°53.512 10.1072 3.614275 32.630645 -0.199615
2009-12-10 09:34:24 51°16.121 2°53.5 10.095 3.615001 32.640322 -0.199615
2009-12-10 09:34:29 51°16.133 2°53.489 10.1093 3.615934 32.654477 -0.199615
2009-12-10 09:34:34 51°16.146 2°53.478 10.0992 3.617695 32.676163 -0.199615
2009-12-10 09:34:38 51°16.156 2°53.469 10.0997 3.617695 32.676163 -0.199615
2009-12-10 09:34:43 51°16.168 2°53.459 10.1082 3.617903 32.683042 -0.199615
2009-12-10 09:34:49 51°16.183 2°53.446 10.0993 3.620183 32.711546 -0.199615
2009-12-10 09:34:54 51°16.196 2°53.436 10.1059 3.619872 32.713226 -0.234439
2009-12-10 09:34:59 51°16.208 2°53.426 10.1154 3.621841 32.738622 -0.199615
2009-12-10 09:35:04 51°16.221 2°53.415 10.0919 3.622566 32.748319 -0.234439
2009-12-10 09:35:09 51°16.233 2°53.404 10.0999 3.622566 32.748319 -0.234439
2009-12-10 09:35:14 51°16.246 2°53.393 10.0939 3.622981 32.754892 -0.199615
2009-12-10 09:35:19 51°16.259 2°53.382 10.0897 3.622981 32.75409 -0.199615
2009-12-10 09:35:23 51°16.269 2°53.373 10.1041 3.624224 32.768196 -0.234439
2009-12-10 09:35:29 51°16.284 2°53.359 10.0935 3.625675 32.782784 -0.234439
2009-12-10 09:35:34 51°16.298 2°53.348 10.0912 3.625261 32.780221 -0.234439
2009-12-10 09:35:39 51°16.311 2°53.336 10.084 3.625261 32.780221 -0.234439
2009-12-10 09:35:43 51°16.321 2°53.328 10.0876 3.625675 32.787601 -0.234439
2009-12-10 09:35:48 51°16.334 2°53.315 10.0859 3.625261 32.789857 -0.234439
2009-12-10 09:35:53 51°16.348 2°53.303 10.0806 3.62723 32.809662 -0.234439
2009-12-10 09:35:59 51°16.364 2°53.289 10.0855 3.625883 32.796915 -0.234439
2009-12-10 09:36:03 51°16.374 2°53.28 10.0976 3.627126 32.811031 -0.234439
2009-12-10 09:36:09 51°16.39 2°53.266 10.0976 3.627126 32.811031 -0.234439
2009-12-10 09:36:13 51°16.4 2°53.257 10.0933 3.628681 32.829886 -0.234439
2009-12-10 09:36:18 51°16.414 2°53.246 10.0947 3.628473 32.831823 -0.234439
2009-12-10 09:36:23 51°16.427 2°53.234 10.1005 3.62951 32.844666 -0.234439
2009-12-10 09:36:29 51°16.442 2°53.221 10.0955 3.629095 32.842104 -0.234439
2009-12-10 09:36:33 51°16.452 2°53.211 10.0899 3.628992 32.841061 -0.234439
2009-12-10 09:36:38 51°16.466 2°53.2 10.0976 3.628992 32.841061 -0.234439
2009-12-10 09:36:43 51°16.479 2°53.188 10.1012 3.630028 32.848271 -0.234439
2009-12-10 09:36:49 51°16.494 2°53.175 10.1006 3.62951 32.842251 -0.234439
2009-12-10 09:36:54 51°16.508 2°53.164 10.0968 3.631064 32.856284 -0.234439
2009-12-10 09:36:59 51°16.521 2°53.152 10.0948 3.629199 32.837514 -0.234439
2009-12-10 09:37:03 51°16.532 2°53.143 10.0976 3.632826 32.87482 -0.234439
2009-12-10 09:37:09 51°16.547 2°53.13 10.0955 3.632826 32.87482 -0.234439
2009-12-10 09:37:14 51°16.561 2°53.121 10.102 3.633759 32.885012 -0.234439
2009-12-10 09:37:19 51°16.573 2°53.11 10.1078 3.633137 32.878754 -0.234439
2009-12-10 09:37:23 51°16.583 2°53.101 10.102 3.634484 32.891508 -0.234439
2009-12-10 09:37:28 51°16.597 2°53.091 10.1054 3.634277 32.890228 -0.234439
2009-12-10 09:37:34 51°16.612 2°53.077 10.1116 3.634277 32.891034 -0.234439
2009-12-10 09:37:38 51°16.622 2°53.069 10.1099 3.634277 32.891034 -0.234439
2009-12-10 09:37:43 51°16.635 2°53.058 10.1118 3.63666 32.915026 -0.234439
2009-12-10 09:37:48 51°16.649 2°53.048 10.1111 3.634899 32.896486 -0.234439
2009-12-10 09:37:54 51°16.664 2°53.035 10.1177 3.63552 32.900326 -0.234439
2009-12-10 09:37:59 51°16.677 2°53.024 10.117 3.636971 32.91493 -0.234439
2009-12-10 09:38:03 51°16.687 2°53.016 10.1212 3.640391 32.948548 -0.269263
2009-12-10 09:38:09 51°16.702 2°53.003 10.1245 3.640391 32.948548 -0.269263
2009-12-10 09:38:14 51°16.715 2°52.992 10.1224 3.640909 32.951342 -0.269263
2009-12-10 09:38:19 51°16.727 2°52.982 10.1274 3.641427 32.955751 -0.234439
2009-12-10 09:38:23 51°16.737 2°52.974 10.1293 3.642049 32.960395 -0.269263
2009-12-10 09:38:28 51°16.75 2°52.963 10.1228 3.642878 32.96551 -0.269263
2009-12-10 09:38:34 51°16.765 2°52.951 10.1319 3.643189 32.967024 -0.269263
2009-12-10 09:38:39 51°16.778 2°52.94 10.132 3.643189 32.967024 -0.269263
2009-12-10 09:38:43 51°16.788 2°52.932 10.1322 3.644018 32.975369 -0.269263
2009-12-10 09:38:48 51°16.801 2°52.921 10.1362 3.64464 32.979205 -0.269263
2009-12-10 09:38:54 51°16.817 2°52.908 10.1369 3.645365 32.98489 -0.269263
2009-12-10 09:38:58 51°16.827 2°52.899 10.1429 3.646609 32.997408 -0.269263
2009-12-10 09:39:03 51°16.84 2°52.887 10.1513 3.64692 33.000537 -0.269263
2009-12-10 09:39:09 51°16.856 2°52.875 10.156 3.64692 33.000537 -0.269263
2009-12-10 09:39:14 51°16.869 2°52.865 10.1467 3.647438 33.004136 -0.269263
2009-12-10 09:39:19 51°16.882 2°52.854 10.1527 3.646091 32.988152 -0.269263
2009-12-10 09:39:25 51°16.897 2°52.842 10.1637 3.647956 33.00531 -0.269263
2009-12-10 09:39:30 51°16.91 2°52.831 10.1586 3.649822 33.02085 -0.269263
2009-12-10 09:39:35 51°16.923 2°52.821 10.1653 3.649925 33.017851 -0.269263
2009-12-10 09:39:39 51°16.933 2°52.812 10.1744 3.649925 33.017851 -0.269263
2009-12-10 09:39:44 51°16.945 2°52.801 10.172 3.650443 33.019832 -0.269263
2009-12-10 09:39:49 51°16.958 2°52.79 10.1779 3.651272 33.027366 -0.269263
2009-12-10 09:39:54 51°16.971 2°52.78 10.1722 3.652205 33.034325 -0.269263
2009-12-10 09:39:59 51°16.984 2°52.77 10.1749 3.652516 33.033411 -0.269263
2009-12-10 09:40:03 51°16.995 2°52.761 10.1811 3.653241 33.037475 -0.269263
2009-12-10 09:40:08 51°17.007 2°52.75 10.1851 3.653241 33.037475 -0.269263
2009-12-10 09:40:14 51°17.023 2°52.737 10.185 3.654278 33.04305 -0.269263
2009-12-10 09:40:19 51°17.036 2°52.727 10.1872 3.655418 33.050474 -0.269263
2009-12-10 09:40:23 51°17.046 2°52.718 10.1898 3.656661 33.061366 -0.304087
2009-12-10 09:40:28 51°17.058 2°52.707 10.1971 3.65863 33.081982 -0.269263
2009-12-10 09:40:33 51°17.071 2°52.697 10.1967 3.659045 33.083724 -0.269263
2009-12-10 09:40:39 51°17.086 2°52.683 10.2095 3.659045 33.083724 -0.269263
2009-12-10 09:40:43 51°17.097 2°52.675 10.2076 3.660392 33.093229 -0.304087
2009-12-10 09:40:48 51°17.11 2°52.664 10.2031 3.662154 33.108521 -0.304087
2009-12-10 09:40:54 51°17.125 2°52.653 10.2103 3.662568 33.110262 -0.304087
2009-12-10 09:40:59 51°17.138 2°52.641 10.2146 3.665263 33.134124 -0.304087
2009-12-10 09:41:04 51°17.15 2°52.63 10.2188 3.663501 33.113165 -0.304087
2009-12-10 09:41:09 51°17.163 2°52.62 10.2212 3.663501 33.113165 -0.304087
2009-12-10 09:41:13 51°17.174 2°52.611 10.2193 3.665781 33.132044 -0.269263
2009-12-10 09:41:18 51°17.188 2°52.603 10.2241 3.665056 33.120701 -0.304087
2009-12-10 09:41:23 51°17.202 2°52.595 10.2281 3.66889 33.157638 -0.304087
2009-12-10 09:41:29 51°17.219 2°52.589 10.2298 3.667232 33.139344 -0.304087
2009-12-10 09:41:34 51°17.234 2°52.584 10.2314 3.668476 33.148608 -0.304087
2009-12-10 09:41:38 51°17.245 2°52.581 10.2309 3.668476 33.148608 -0.304087
2009-12-10 09:41:43 51°17.261 2°52.579 10.2366 3.671585 33.175815 -0.304087
2009-12-10 09:41:49 51°17.279 2°52.576 10.2395 3.671999 33.177551 -0.304087
2009-12-10 09:41:54 51°17.294 2°52.574 10.2377 3.671792 33.172226 -0.304087
2009-12-10 09:41:59 51°17.31 2°52.573 10.2433 3.676352 33.215636 -0.304087
2009-12-10 09:42:03 51°17.322 2°52.572 10.2427 3.67884 33.23902 -0.304087
2009-12-10 09:42:08 51°17.337 2°52.571 10.2429 3.67884 33.23902 -0.304087
2009-12-10 09:42:14 51°17.356 2°52.57 10.2483 3.679772 33.247586 -0.304087
2009-12-10 09:42:19 51°17.372 2°52.57 10.2471 3.68112 33.259509 -0.304087
2009-12-10 09:42:23 51°17.384 2°52.571 10.2508 3.68112 33.256259 -0.304087
2009-12-10 09:42:28 51°17.4 2°52.57 10.2492 3.683918 33.281955 -0.304087
2009-12-10 09:42:34 51°17.418 2°52.571 10.2508 3.685473 33.296773 -0.304087
2009-12-10 09:42:39 51°17.433 2°52.571 10.2508 3.685473 33.296773 -0.304087
2009-12-10 09:42:43 51°17.446 2°52.572 10.2493 3.686613 33.307422 -0.304087
2009-12-10 09:42:48 51°17.461 2°52.573 10.2474 3.687545 33.313547 -0.304087
2009-12-10 09:42:53 51°17.476 2°52.574 10.2507 3.688271 33.318401 -0.304087
2009-12-10 09:42:59 51°17.494 2°52.574 10.2478 3.689929 33.335073 -0.304087
2009-12-10 09:43:03 51°17.507 2°52.575 10.2557 3.691173 33.346764 -0.304087
2009-12-10 09:43:09 51°17.525 2°52.575 10.251 3.691173 33.346764 -0.304087
2009-12-10 09:43:13 51°17.537 2°52.576 10.2581 3.69138 33.348034 -0.304087
2009-12-10 09:43:18 51°17.553 2°52.576 10.2558 3.692106 33.354514 -0.304087
2009-12-10 09:43:23 51°17.568 2°52.577 10.2552 3.693142 33.366564 -0.304087
2009-12-10 09:43:29 51°17.587 2°52.578 10.2572 3.693246 33.366792 -0.304087
2009-12-10 09:43:34 51°17.602 2°52.577 10.2595 3.694904 33.383467 -0.304087
2009-12-10 09:43:38 51°17.615 2°52.578 10.2588 3.694904 33.383467 -0.304087
2009-12-10 09:43:43 51°17.631 2°52.578 10.2591 3.695111 33.384736 -0.304087
2009-12-10 09:43:49 51°17.649 2°52.578 10.265 3.696148 33.393528 -0.304087
2009-12-10 09:43:54 51°17.665 2°52.578 10.2617 3.696148 33.391898 -0.304087
2009-12-10 09:43:59 51°17.68 2°52.578 10.2642 3.696977 33.39942 -0.304087
2009-12-10 09:44:03 51°17.692 2°52.581 10.2635 3.697392 33.401958 -0.304087
2009-12-10 09:44:10 51°17.712 2°52.583 10.2681 3.697392 33.401958 -0.304087
2009-12-10 09:44:15 51°17.726 2°52.584 10.272 3.698324 33.411338 -0.304087
2009-12-10 09:44:20 51°17.741 2°52.585 10.2747 3.69905 33.418633 -0.304087
2009-12-10 09:44:25 51°17.755 2°52.586 10.2776 3.700605 33.432635 -0.304087
2009-12-10 09:44:30 51°17.77 2°52.587 10.2731 3.700812 33.433088 -0.304087
2009-12-10 09:44:35 51°17.785 2°52.589 10.2772 3.701434 33.439341 -0.304087
2009-12-10 09:44:40 51°17.799 2°52.589 10.2804 3.701434 33.439341 -0.304087
2009-12-10 09:44:45 51°17.814 2°52.591 10.2779 3.702574 33.448357 -0.304087
2009-12-10 09:44:49 51°17.826 2°52.591 10.2806 3.702677 33.44695 -0.304087
2009-12-10 09:44:54 51°17.841 2°52.592 10.2826 3.703921 33.457007 -0.304087
2009-12-10 09:44:59 51°17.856 2°52.592 10.2874 3.704854 33.464753 -0.304087
2009-12-10 09:45:04 51°17.871 2°52.593 10.2876 3.704025 33.456416 -0.304087
2009-12-10 09:45:08 51°17.883 2°52.594 10.2917 3.704025 33.456416 -0.304087
2009-12-10 09:45:14 51°17.902 2°52.595 10.2932 3.704439 33.458952 -0.304087
2009-12-10 09:45:19 51°17.916 2°52.598 10.2982 3.699775 33.410434 -0.304087
2009-12-10 09:45:23 51°17.928 2°52.598 10.3054 3.709104 33.502579 -0.304087
2009-12-10 09:45:29 51°17.947 2°52.599 10.3007 3.709518 33.505113 -0.304087
2009-12-10 09:45:34 51°17.962 2°52.6 10.3051 3.708585 33.493283 -0.304087
2009-12-10 09:45:38 51°17.974 2°52.602 10.3025 3.708585 33.493283 -0.304087
2009-12-10 09:45:43 51°17.989 2°52.603 10.3008 3.710555 33.509812 -0.304087
2009-12-10 09:45:49 51°18.007 2°52.604 10.307 3.711798 33.520682 -0.304087
2009-12-10 09:45:54 51°18.022 2°52.607 10.31 3.712006 33.519495 -0.304087
2009-12-10 09:45:58 51°18.034 2°52.609 10.3073 3.712835 33.523743 -0.304087
2009-12-10 09:46:03 51°18.05 2°52.614 10.3136 3.713146 33.524416 -0.304087
2009-12-10 09:46:09 51°18.067 2°52.62 10.3143 3.713146 33.524416 -0.304087
2009-12-10 09:46:14 51°18.082 2°52.626 10.3163 3.713664 33.529625 -0.304087
2009-12-10 09:46:19 51°18.097 2°52.632 10.3237 3.714182 33.534017 -0.304087
2009-12-10 09:46:23 51°18.108 2°52.64 10.327 3.714182 33.531564 -0.304087
2009-12-10 09:46:28 51°18.123 2°52.647 10.3247 3.716462 33.552847 -0.304087
2009-12-10 09:46:34 51°18.139 2°52.661 10.3243 3.716151 33.547268 -0.234439
2009-12-10 09:46:39 51°18.154 2°52.67 10.3209 3.716151 33.547268 -0.234439
2009-12-10 09:46:43 51°18.165 2°52.68 10.3223 3.707134 33.45503 -0.269263
2009-12-10 09:46:48 51°18.178 2°52.691 10.3211 3.701226 33.393248 -0.304087
2009-12-10 09:46:54 51°18.194 2°52.708 10.3294 3.712524 33.504279 -0.304087
2009-12-10 09:46:59 51°18.208 2°52.719 10.3293 3.717188 33.54869 -0.304087
2009-12-10 09:47:03 51°18.218 2°52.733 10.3342 3.717706 33.552262 -0.304087
2009-12-10 09:47:08 51°18.232 2°52.744 10.3284 3.717706 33.552262 -0.304087
2009-12-10 09:47:13 51°18.243 2°52.761 10.3311 3.719986 33.573538 -0.304087
2009-12-10 09:47:19 51°18.258 2°52.779 10.3351 3.718017 33.553751 -0.304087
2009-12-10 09:47:23 51°18.267 2°52.793 10.3334 3.719572 33.57019 -0.304087
2009-12-10 09:47:29 51°18.28 2°52.815 10.3354 3.720401 33.576886 -0.304087
2009-12-10 09:47:33 51°18.288 2°52.83 10.333 3.719883 33.569225 -0.304087
2009-12-10 09:47:39 51°18.3 2°52.854 10.3304 3.719883 33.569225 -0.304087
2009-12-10 09:47:43 51°18.307 2°52.87 10.338 3.720297 33.570936 -0.304087
2009-12-10 09:47:49 51°18.317 2°52.896 10.3433 3.718224 33.549294 -0.304087
2009-12-10 09:47:54 51°18.326 2°52.916 10.3362 3.721852 33.58492 -0.304087
2009-12-10 09:47:58 51°18.332 2°52.934 10.34 3.721645 33.582019 -0.269263
2009-12-10 09:48:03 51°18.338 2°52.957 10.3352 3.720401 33.568707 -0.269263
2009-12-10 09:48:09 51°18.346 2°52.983 10.3333 3.720401 33.568707 -0.269263
2009-12-10 09:48:14 51°18.351 2°53.007 10.3488 3.716462 33.527511 -0.269263
2009-12-10 09:48:19 51°18.357 2°53.029 10.3429 3.722163 33.583136 -0.304087
2009-12-10 09:48:23 51°18.358 2°53.049 10.3425 3.721541 33.575253 -0.304087
2009-12-10 09:48:29 51°18.366 2°53.075 10.3451 3.723718 33.597117 -0.304087
2009-12-10 09:48:34 51°18.37 2°53.1 10.349 3.726827 33.627537 -0.304087
2009-12-10 09:48:39 51°18.376 2°53.122 10.3436 3.726827 33.627537 -0.304087
2009-12-10 09:48:43 51°18.378 2°53.142 10.3503 3.727034 33.630439 -0.304087
2009-12-10 09:48:49 51°18.386 2°53.169 10.3488 3.727345 33.630286 -0.304087
2009-12-10 09:48:54 51°18.39 2°53.193 10.3388 3.727345 33.629467 -0.304087
2009-12-10 09:48:59 51°18.394 2°53.217 10.3413 3.727656 33.631772 -0.304087
2009-12-10 09:49:03 51°18.4 2°53.234 10.3382 3.726827 33.621805 -0.304087
2009-12-10 09:49:08 51°18.403 2°53.258 10.3447 3.726827 33.621805 -0.304087
2009-12-10 09:49:13 51°18.41 2°53.28 10.3399 3.727656 33.630953 -0.304087
2009-12-10 09:49:19 51°18.416 2°53.308 10.3432 3.72776 33.630357 -0.304087
2009-12-10 09:49:23 51°18.422 2°53.326 10.339 3.727553 33.627455 -0.304087
2009-12-10 09:49:29 51°18.429 2°53.355 10.3391 3.727967 33.634077 -0.304087
2009-12-10 09:49:34 51°18.436 2°53.376 10.3362 3.727967 33.636534 -0.304087
2009-12-10 09:49:39 51°18.441 2°53.4 10.3352 3.727967 33.636534 -0.304087
2009-12-10 09:49:43 51°18.449 2°53.417 10.3412 3.72776 33.634452 -0.304087
2009-12-10 09:49:49 51°18.456 2°53.445 10.3329 3.727553 33.632369 -0.304087
2009-12-10 09:49:54 51°18.462 2°53.467 10.3384 3.727345 33.630286 -0.304087
2009-12-10 09:49:59 51°18.469 2°53.49 10.3312 3.727242 33.630064 -0.304087
2009-12-10 09:50:04 51°18.478 2°53.511 10.3372 3.727138 33.63148 -0.304087
2009-12-10 09:50:08 51°18.481 2°53.53 10.3317 3.727138 33.63148 -0.304087
2009-12-10 09:50:14 51°18.492 2°53.555 10.3236 3.726827 33.629994 -0.304087
2009-12-10 09:50:18 51°18.497 2°53.573 10.3206 3.72662 33.627092 -0.304087
2009-12-10 09:50:24 51°18.506 2°53.6 10.3243 3.726413 33.626647 -0.304087
2009-12-10 09:50:28 51°18.513 2°53.616 10.3144 3.726205 33.625384 -0.304087
2009-12-10 09:50:34 51°18.521 2°53.644 10.3297 3.725998 33.62412 -0.304087
2009-12-10 09:50:39 51°18.53 2°53.666 10.323 3.725998 33.62412 -0.304087
2009-12-10 09:50:43 51°18.534 2°53.686 10.327 3.725687 33.621815 -0.304087
2009-12-10 09:50:48 51°18.543 2°53.706 10.3165 3.725687 33.624272 -0.304087
2009-12-10 09:50:54 51°18.551 2°53.733 10.31 3.72548 33.625465 -0.304087
2009-12-10 09:50:59 51°18.559 2°53.755 10.311 3.725376 33.626882 -0.304087
2009-12-10 09:51:03 51°18.566 2°53.771 10.3121 3.725273 33.62584 -0.304087
2009-12-10 09:51:08 51°18.571 2°53.795 10.3109 3.725273 33.62584 -0.304087
2009-12-10 09:51:14 51°18.583 2°53.818 10.305 3.724962 33.622715 -0.304087
2009-12-10 09:51:19 51°18.589 2°53.842 10.3101 3.724651 33.61959 -0.304087
2009-12-10 09:51:24 51°18.599 2°53.86 10.316 3.724547 33.620187 -0.304087
2009-12-10 09:51:28 51°18.603 2°53.879 10.3129 3.724236 33.621158 -0.304087
2009-12-10 09:51:33 51°18.611 2°53.901 10.3114 3.724029 33.622352 -0.304087
2009-12-10 09:51:39 51°18.621 2°53.925 10.2984 3.724029 33.622352 -0.304087
2009-12-10 09:51:44 51°18.628 2°53.947 10.2992 3.723822 33.622727 -0.304087
2009-12-10 09:51:48 51°18.635 2°53.964 10.2958 3.723407 33.622656 -0.304087
2009-12-10 09:51:53 51°18.643 2°53.984 10.2929 3.722992 33.61603 -0.304087
2009-12-10 09:51:59 51°18.652 2°54.01 10.2994 3.722578 33.611042 -0.304087
2009-12-10 09:52:03 51°18.657 2°54.028 10.3096 3.722267 33.609555 -0.304087
2009-12-10 09:52:08 51°18.667 2°54.048 10.2996 3.722267 33.609555 -0.304087
2009-12-10 09:52:13 51°18.672 2°54.071 10.2974 3.72206 33.609929 -0.304087
2009-12-10 09:52:19 51°18.684 2°54.094 10.3007 3.72206 33.613207 -0.304087
2009-12-10 09:52:23 51°18.689 2°54.113 10.2921 3.721645 33.612316 -0.304087
2009-12-10 09:52:28 51°18.698 2°54.134 10.2943 3.721334 33.611649 -0.304087
2009-12-10 09:52:34 51°18.708 2°54.159 10.2838 3.720919 33.60666 -0.304087
2009-12-10 09:52:39 51°18.715 2°54.181 10.2864 3.720919 33.60666 -0.304087
2009-12-10 09:52:43 51°18.721 2°54.198 10.2854 3.720608 33.603533 -0.304087
2009-12-10 09:52:49 51°18.732 2°54.223 10.2788 3.720401 33.601449 -0.304087
2009-12-10 09:52:54 51°18.739 2°54.244 10.2705 3.719987 33.598918 -0.338911
2009-12-10 09:52:59 51°18.747 2°54.267 10.2729 3.719676 33.59743 -0.304087
2009-12-10 09:53:03 51°18.755 2°54.282 10.2733 3.719572 33.598027 -0.304087
2009-12-10 09:53:09 51°18.764 2°54.308 10.2645 3.719572 33.598027 -0.304087
2009-12-10 09:53:14 51°18.773 2°54.327 10.2734 3.719157 33.597955 -0.304087
2009-12-10 09:53:19 51°18.781 2°54.349 10.2675 3.71895 33.598328 -0.304087
2009-12-10 09:53:23 51°18.787 2°54.366 10.269 3.718536 33.599076 -0.304087
2009-12-10 09:53:28 51°18.796 2°54.386 10.2701 3.718121 33.597365 -0.304087
2009-12-10 09:53:34 51°18.807 2°54.41 10.2601 3.717914 33.597739 -0.304087
2009-12-10 09:53:39 51°18.814 2°54.432 10.2601 3.717914 33.597739 -0.304087
2009-12-10 09:53:43 51°18.821 2°54.449 10.2655 3.717499 33.596027 -0.304087
2009-12-10 09:53:48 51°18.831 2°54.468 10.2619 3.717292 33.594762 -0.304087
2009-12-10 09:53:53 51°18.837 2°54.491 10.2599 3.716774 33.590367 -0.304087
2009-12-10 09:53:59 51°18.848 2°54.513 10.2515 3.716463 33.589698 -0.304087
2009-12-10 09:54:03 51°18.853 2°54.531 10.2535 3.716256 33.589252 -0.304087
2009-12-10 09:54:08 51°18.863 2°54.55 10.2497 3.716256 33.589252 -0.304087
2009-12-10 09:54:13 51°18.869 2°54.573 10.251 3.715841 33.58672 -0.304087
2009-12-10 09:54:19 51°18.879 2°54.598 10.251 3.715737 33.585677 -0.304087
2009-12-10 09:54:23 51°18.885 2°54.615 10.25 3.715323 33.584784 -0.304087
2009-12-10 09:54:28 51°18.893 2°54.636 10.251 3.714908 33.582252 -0.304087
2009-12-10 09:54:33 51°18.899 2°54.659 10.2415 3.714701 33.582625 -0.304087
2009-12-10 09:54:39 51°18.907 2°54.686 10.246 3.714701 33.582625 -0.304087
2009-12-10 09:54:43 51°18.914 2°54.702 10.244 3.714494 33.582179 -0.304087
2009-12-10 09:54:49 51°18.921 2°54.73 10.2408 3.714183 33.580689 -0.304087
2009-12-10 09:54:54 51°18.93 2°54.75 10.239 3.713872 33.578379 -0.304087
2009-12-10 09:54:58 51°18.933 2°54.77 10.2421 3.713561 33.577709 -0.304087
2009-12-10 09:55:03 51°18.941 2°54.791 10.2403 3.713354 33.577263 -0.304087
2009-12-10 09:55:08 51°18.947 2°54.815 10.2325 3.713354 33.577263 -0.304087
2009-12-10 09:55:14 51°18.957 2°54.84 10.2442 3.713043 33.575773 -0.304087
2009-12-10 09:55:19 51°18.961 2°54.865 10.2389 3.712628 33.573239 -0.304087
2009-12-10 09:55:23 51°18.966 2°54.882 10.2357 3.712421 33.572792 -0.304087
2009-12-10 09:55:28 51°18.973 2°54.905 10.2427 3.712006 33.569439 -0.304087
2009-12-10 09:55:34 51°18.982 2°54.931 10.2364 3.711695 33.567948 -0.304087
2009-12-10 09:55:39 51°18.986 2°54.956 10.248 3.711695 33.567948 -0.304087
2009-12-10 09:55:43 51°18.993 2°54.972 10.2346 3.711384 33.565637 -0.304087
2009-12-10 09:55:48 51°18.998 2°54.997 10.2313 3.711073 33.563327 -0.304087
2009-12-10 09:55:54 51°19.007 2°55.022 10.2361 3.71097 33.560643 -0.304087
2009-12-10 09:55:59 51°19.011 2°55.046 10.2243 3.710659 33.559153 -0.304087
2009-12-10 09:56:04 51°19.019 2°55.068 10.2367 3.710452 33.557885 -0.304087
2009-12-10 09:56:08 51°19.023 2°55.086 10.2273 3.710452 33.557885 -0.304087
2009-12-10 09:56:13 51°19.029 2°55.109 10.2271 3.710141 33.553935 -0.304087
2009-12-10 09:56:19 51°19.038 2°55.135 10.2234 3.709933 33.551848 -0.304087
2009-12-10 09:56:24 51°19.044 2°55.157 10.217 3.709519 33.550133 -0.304087
2009-12-10 09:56:28 51°19.05 2°55.174 10.2153 3.708897 33.546331 -0.304087
2009-12-10 09:56:34 51°19.057 2°55.201 10.2112 3.708379 33.541932 -0.304087
2009-12-10 09:56:38 51°19.063 2°55.218 10.2099 3.708379 33.541932 -0.304087
2009-12-10 09:56:43 51°19.072 2°55.238 10.2095 3.707964 33.537758 -0.304087
2009-12-10 09:56:49 51°19.08 2°55.265 10.2162 3.707446 33.534998 -0.304087
2009-12-10 09:56:54 51°19.088 2°55.287 10.2122 3.707135 33.535965 -0.304087
2009-12-10 09:56:58 51°19.092 2°55.305 10.2137 3.706928 33.537156 -0.304087
2009-12-10 09:57:03 51°19.101 2°55.326 10.2146 3.706409 33.536856 -0.304087
2009-12-10 09:57:09 51°19.108 2°55.353 10.2061 3.706409 33.536856 -0.304087
2009-12-10 09:57:14 51°19.115 2°55.375 10.2076 3.706202 33.538047 -0.304087
2009-12-10 09:57:18 51°19.121 2°55.392 10.2037 3.705891 33.535735 -0.304087
2009-12-10 09:57:23 51°19.127 2°55.415 10.2069 3.70558 33.532603 -0.304087
2009-12-10 09:57:29 51°19.137 2°55.44 10.2012 3.705269 33.528651 -0.304087
2009-12-10 09:57:34 51°19.142 2°55.465 10.2089 3.705269 33.528651 -0.304087
2009-12-10 09:57:39 51°19.151 2°55.485 10.2099 3.705269 33.528651 -0.304087
2009-12-10 09:57:43 51°19.155 2°55.503 10.1998 3.704855 33.526934 -0.304087
2009-12-10 09:57:48 51°19.163 2°55.524 10.1963 3.704751 33.52753 -0.304087
2009-12-10 09:57:54 51°19.169 2°55.552 10.2034 3.704233 33.524768 -0.304087
2009-12-10 09:57:59 51°19.176 2°55.574 10.1952 3.704129 33.524544 -0.304087
2009-12-10 09:58:03 51°19.179 2°55.593 10.1906 3.703611 33.520143 -0.304087
2009-12-10 09:58:08 51°19.185 2°55.616 10.1966 3.703611 33.520143 -0.304087
2009-12-10 09:58:14 51°19.193 2°55.643 10.1862 3.703404 33.517235 -0.304087
2009-12-10 09:58:19 51°19.197 2°55.667 10.1843 3.703197 33.516786 -0.304087
2009-12-10 09:58:23 51°19.203 2°55.685 10.1847 3.702989 33.517976 -0.304087
2009-12-10 09:58:29 51°19.208 2°55.713 10.1805 3.702678 33.515663 -0.304087
2009-12-10 09:58:34 51°19.215 2°55.735 10.1835 3.702367 33.515809 -0.304087
2009-12-10 09:58:39 51°19.219 2°55.759 10.1908 3.702367 33.515809 -0.304087
2009-12-10 09:58:43 51°19.223 2°55.777 10.1827 3.702057 33.514316 -0.304087
2009-12-10 09:58:49 51°19.229 2°55.805 10.1786 3.701642 33.514238 -0.304087
2009-12-10 09:58:54 51°19.234 2°55.828 10.1833 3.701227 33.51334 -0.304087
2009-12-10 09:58:58 51°19.238 2°55.847 10.181 3.700813 33.510801 -0.304087
2009-12-10 09:59:03 51°19.244 2°55.869 10.1806 3.700502 33.507667 -0.304087
2009-12-10 09:59:09 51°19.248 2°55.897 10.1777 3.700502 33.507667 -0.304087
2009-12-10 09:59:14 51°19.255 2°55.919 10.1811 3.700295 33.505578 -0.304087
2009-12-10 09:59:18 51°19.257 2°55.939 10.1846 3.700087 33.505128 -0.304087
2009-12-10 09:59:23 51°19.265 2°55.96 10.1796 3.69988 33.504679 -0.304087
2009-12-10 09:59:29 51°19.268 2°55.989 10.1708 3.699673 33.50177 -0.304087
2009-12-10 09:59:34 51°19.275 2°56.01 10.1818 3.699362 33.498635 -0.304087
2009-12-10 09:59:39 51°19.279 2°56.035 10.1742 3.699362 33.498635 -0.304087
2009-12-10 09:59:43 51°19.283 2°56.053 10.1891 3.699051 33.496321 -0.304087
2009-12-10 09:59:49 51°19.29 2°56.08 10.1781 3.698844 33.495871 -0.304087
2009-12-10 09:59:54 51°19.296 2°56.103 10.1776 3.698844 33.495052 -0.304087
2009-12-10 09:59:59 51°19.3 2°56.127 10.1802 3.698533 33.493557 -0.304087
2009-12-10 10:00:03 51°19.305 2°56.144 10.1702 3.698325 33.492287 -0.304087
2009-12-10 10:00:08 51°19.309 2°56.168 10.167 3.698325 33.492287 -0.304087
2009-12-10 10:00:14 51°19.317 2°56.194 10.1668 3.698015 33.489153 -0.304087
2009-12-10 10:00:19 51°19.32 2°56.219 10.1714 3.697807 33.486244 -0.304087
2009-12-10 10:00:23 51°19.326 2°56.236 10.1673 3.697704 33.48438 -0.304087
2009-12-10 10:00:28 51°19.329 2°56.26 10.169 3.697496 33.483929 -0.304087
2009-12-10 10:00:34 51°19.338 2°56.286 10.1631 3.697289 33.483479 -0.304087
2009-12-10 10:00:39 51°19.341 2°56.31 10.1743 3.697289 33.483479 -0.304087
2009-12-10 10:00:43 51°19.346 2°56.327 10.1616 3.696978 33.482804 -0.304087
2009-12-10 10:00:48 51°19.35 2°56.352 10.165 3.696564 33.481083 -0.304087
2009-12-10 10:00:54 51°19.357 2°56.378 10.1625 3.69646 33.480038 -0.304087
2009-12-10 10:00:58 51°19.36 2°56.397 10.1528 3.695942 33.476453 -0.304087
2009-12-10 10:01:03 51°19.365 2°56.421 10.1657 3.695631 33.474958 -0.304087
2009-12-10 10:01:09 51°19.371 2°56.448 10.1603 3.695631 33.474958 -0.304087
2009-12-10 10:01:14 51°19.375 2°56.471 10.1524 3.695113 33.470552 -0.269263
2009-12-10 10:01:19 51°19.38 2°56.495 10.1566 3.694802 33.468237 -0.304087
2009-12-10 10:01:24 51°19.386 2°56.517 10.1508 3.694594 33.466967 -0.304087
2009-12-10 10:01:28 51°19.387 2°56.537 10.1537 3.694283 33.46629 -0.304087
2009-12-10 10:01:34 51°19.395 2°56.562 10.1512 3.694076 33.46502 -0.304087
2009-12-10 10:01:38 51°19.398 2°56.582 10.157 3.694076 33.46502 -0.304087
2009-12-10 10:01:43 51°19.404 2°56.604 10.1584 3.693765 33.461884 -0.304087
2009-12-10 10:01:49 51°19.408 2°56.634 10.1579 3.693454 33.461208 -0.269263
2009-12-10 10:01:54 51°19.414 2°56.655 10.1488 3.693247 33.459937 -0.304087
2009-12-10 10:01:58 51°19.418 2°56.674 10.1399 3.692936 33.457621 -0.304087
2009-12-10 10:02:03 51°19.422 2°56.697 10.1432 3.692936 33.458441 -0.304087
2009-12-10 10:02:09 51°19.429 2°56.725 10.1403 3.692936 33.458441 -0.304087
2009-12-10 10:02:14 51°19.433 2°56.748 10.1457 3.692522 33.455899 -0.304087
2009-12-10 10:02:19 51°19.439 2°56.771 10.1525 3.692211 33.451125 -0.304087
2009-12-10 10:02:23 51°19.443 2°56.79 10.1386 3.6919 33.449628 -0.304087
2009-12-10 10:02:29 51°19.448 2°56.818 10.1442 3.691485 33.450363 -0.269263
2009-12-10 10:02:34 51°19.454 2°56.839 10.1412 3.691382 33.452596 -0.304087
2009-12-10 10:02:39 51°19.457 2°56.865 10.1531 3.691382 33.452596 -0.304087
2009-12-10 10:02:44 51°19.465 2°56.885 10.1479 3.691174 33.452145 -0.269263
2009-12-10 10:02:49 51°19.467 2°56.91 10.1386 3.690449 33.445646 -0.304087
2009-12-10 10:02:54 51°19.475 2°56.931 10.1451 3.690345 33.444601 -0.304087
2009-12-10 10:02:59 51°19.48 2°56.954 10.1505 3.690242 33.444375 -0.304087
2009-12-10 10:03:03 51°19.484 2°56.972 10.1398 3.690242 33.444375 -0.269263
2009-12-10 10:03:08 51°19.49 2°56.994 10.143 3.690242 33.444375 -0.269263
2009-12-10 10:03:13 51°19.495 2°57.016 10.1429 3.689827 33.438555 -0.269263
2009-12-10 10:03:19 51°19.501 2°57.045 10.1404 3.689723 33.437509 -0.269263
2009-12-10 10:03:23 51°19.506 2°57.062 10.1385 3.68962 33.437283 -0.269263
2009-12-10 10:03:28 51°19.512 2°57.084 10.1481 3.689516 33.435418 -0.269263
2009-12-10 10:03:34 51°19.518 2°57.112 10.1417 3.689205 33.432282 -0.269263
2009-12-10 10:03:38 51°19.524 2°57.129 10.1445 3.689205 33.432282 -0.269263
2009-12-10 10:03:44 51°19.528 2°57.157 10.1374 3.688894 33.429966 -0.304087
2009-12-10 10:03:48 51°19.534 2°57.175 10.1375 3.688894 33.432423 -0.269263
2009-12-10 10:03:54 51°19.539 2°57.203 10.1263 3.688583 33.430106 -0.269263
2009-12-10 10:03:58 51°19.542 2°57.222 10.133 3.688169 33.426744 -0.304087
2009-12-10 10:04:03 51°19.548 2°57.243 10.1255 3.68765 33.419878 -0.269263
2009-12-10 10:04:09 51°19.553 2°57.272 10.1403 3.68765 33.419878 -0.269263
2009-12-10 10:04:14 51°19.56 2°57.294 10.1316 3.68734 33.41838 -0.269263
2009-12-10 10:04:19 51°19.564 2°57.317 10.1308 3.68734 33.41838 -0.269263
2009-12-10 10:04:23 51°19.567 2°57.336 10.129 3.687236 33.419792 -0.269263
2009-12-10 10:04:28 51°19.572 2°57.359 10.1325 3.687132 33.422023 -0.269263
2009-12-10 10:04:34 51°19.577 2°57.387 10.1274 3.687029 33.423435 -0.269263
2009-12-10 10:04:39 51°19.581 2°57.411 10.1256 3.687029 33.423435 -0.269263
2009-12-10 10:04:43 51°19.586 2°57.429 10.1225 3.686407 33.416342 -0.269263
2009-12-10 10:04:48 51°19.589 2°57.453 10.1266 3.6862 33.413432 -0.269263
2009-12-10 10:04:53 51°19.593 2°57.476 10.1244 3.685992 33.412979 -0.269263
2009-12-10 10:04:59 51°19.596 2°57.506 10.1209 3.685992 33.413798 -0.269263
2009-12-10 10:05:03 51°19.601 2°57.524 10.1276 3.685992 33.415436 -0.269263
2009-12-10 10:05:08 51°19.605 2°57.547 10.134 3.685992 33.415436 -0.269263
2009-12-10 10:05:13 51°19.608 2°57.571 10.1253 3.685889 33.416029 -0.269263
2009-12-10 10:05:19 51°19.614 2°57.599 10.1198 3.684852 33.408029 -0.269263
2009-12-10 10:05:23 51°19.616 2°57.618 10.1163 3.685681 33.416395 -0.269263
2009-12-10 10:05:28 51°19.619 2°57.642 10.1163 3.685474 33.415123 -0.269263
2009-12-10 10:05:33 51°19.623 2°57.665 10.1149 3.685578 33.41453 -0.269263
2009-12-10 10:05:39 51°19.627 2°57.693 10.1172 3.685578 33.41453 -0.269263
2009-12-10 10:05:43 51°19.63 2°57.712 10.1161 3.68537 33.412438 -0.269263
2009-12-10 10:05:49 51°19.634 2°57.741 10.1132 3.685267 33.410573 -0.269263
2009-12-10 10:05:54 51°19.639 2°57.765 10.1139 3.685163 33.411985 -0.269263
2009-12-10 10:05:58 51°19.64 2°57.784 10.1177 3.684956 33.41399 -0.269263
2009-12-10 10:06:03 51°19.645 2°57.807 10.1182 3.684956 33.414809 -0.269263
2009-12-10 10:06:09 51°19.649 2°57.835 10.11 3.684956 33.414809 -0.269263
2009-12-10 10:06:14 51°19.652 2°57.859 10.114 3.684749 33.413537 -0.269263
2009-12-10 10:06:19 51°19.656 2°57.883 10.1345 3.684645 33.41413 -0.269263
2009-12-10 10:06:23 51°19.66 2°57.9 10.1171 3.684541 33.414723 -0.269263
2009-12-10 10:06:29 51°19.662 2°57.93 10.1169 3.684231 33.411585 -0.269263
2009-12-10 10:06:34 51°19.668 2°57.952 10.1164 3.684231 33.410765 -0.269263
2009-12-10 10:06:38 51°19.671 2°57.971 10.1092 3.684231 33.410765 -0.269263
2009-12-10 10:06:43 51°19.674 2°57.995 10.1164 3.684127 33.4089 -0.269263
2009-12-10 10:06:49 51°19.679 2°58.022 10.1125 3.684023 33.408673 -0.269263
2009-12-10 10:06:54 51°19.683 2°58.045 10.1248 3.684023 33.407035 -0.269263
2009-12-10 10:06:59 51°19.687 2°58.068 10.1132 3.68392 33.405989 -0.269263
2009-12-10 10:07:03 51°19.689 2°58.088 10.1115 3.68392 33.405989 -0.269263
2009-12-10 10:07:08 51°19.695 2°58.11 10.1073 3.68392 33.405989 -0.269263
2009-12-10 10:07:14 51°19.699 2°58.139 10.107 3.683816 33.406581 -0.269263
2009-12-10 10:07:19 51°19.703 2°58.162 10.1115 3.683609 33.405309 -0.269263
2009-12-10 10:07:23 51°19.706 2°58.181 10.1074 3.683609 33.405309 -0.269263
2009-12-10 10:07:28 51°19.709 2°58.205 10.1101 3.683505 33.402624 -0.269263
2009-12-10 10:07:34 51°19.713 2°58.233 10.1048 3.683505 33.404263 -0.269263
2009-12-10 10:07:39 51°19.716 2°58.257 10.103 3.683505 33.404263 -0.269263
2009-12-10 10:07:43 51°19.718 2°58.276 10.1076 3.683298 33.404628 -0.269263
2009-12-10 10:07:49 51°19.723 2°58.305 10.1037 3.68309 33.404175 -0.269263
2009-12-10 10:07:54 51°19.725 2°58.328 10.1006 3.682883 33.402902 -0.269263
2009-12-10 10:07:58 51°19.728 2°58.347 10.111 3.682572 33.399764 -0.269263
2009-12-10 10:08:03 51°19.732 2°58.37 10.1028 3.682676 33.40081 -0.269263
2009-12-10 10:08:09 51°19.733 2°58.399 10.103 3.682676 33.40081 -0.269263
2009-12-10 10:08:14 51°19.739 2°58.421 10.1028 3.682365 33.400949 -0.269263
2009-12-10 10:08:18 51°19.741 2°58.44 10.1045 3.682261 33.400722 -0.269263
2009-12-10 10:08:23 51°19.743 2°58.466 10.1061 3.682054 33.399449 -0.269263
2009-12-10 10:08:29 51°19.749 2°58.493 10.106 3.681951 33.398403 -0.269263
2009-12-10 10:08:34 51°19.748 2°58.517 10.1075 3.681847 33.395718 -0.269263
2009-12-10 10:08:38 51°19.752 2°58.535 10.1061 3.681847 33.395718 -0.269263
2009-12-10 10:08:43 51°19.755 2°58.559 10.1063 3.681743 33.39631 -0.269263
2009-12-10 10:08:49 51°19.757 2°58.588 10.1087 3.68164 33.395264 -0.269263
2009-12-10 10:08:54 51°19.76 2°58.612 10.1055 3.681536 33.395037 -0.269263
2009-12-10 10:08:59 51°19.761 2°58.636 10.1128 3.681536 33.394218 -0.269263
2009-12-10 10:09:03 51°19.763 2°58.656 10.1075 3.681432 33.393172 -0.269263
2009-12-10 10:09:08 51°19.762 2°58.68 10.1134 3.681432 33.393172 -0.269263
2009-12-10 10:09:14 51°19.765 2°58.708 10.113 3.681536 33.393399 -0.269263
2009-12-10 10:09:19 51°19.763 2°58.733 10.1057 3.681432 33.391533 -0.269263
2009-12-10 10:09:23 51°19.765 2°58.753 10.106 3.681432 33.392352 -0.269263
2009-12-10 10:09:28 51°19.765 2°58.777 10.1065 3.681432 33.390714 -0.269263
2009-12-10 10:09:33 51°19.765 2°58.801 10.1032 3.681329 33.390487 -0.234439
2009-12-10 10:09:39 51°19.764 2°58.83 10.1007 3.681329 33.390487 -0.234439
2009-12-10 10:09:43 51°19.765 2°58.85 10.0992 3.681225 33.387803 -0.269263
2009-12-10 10:09:48 51°19.763 2°58.874 10.0949 3.681018 33.384892 -0.269263
2009-12-10 10:09:53 51°19.763 2°58.898 10.1038 3.68081 33.382799 -0.269263
2009-12-10 10:09:59 51°19.763 2°58.926 10.0943 3.680603 33.381526 -0.269263
2009-12-10 10:10:03 51°19.761 2°58.946 10.0941 3.680292 33.380026 -0.234439
2009-12-10 10:10:08 51°19.762 2°58.97 10.1025 3.680292 33.380026 -0.234439
2009-12-10 10:10:14 51°19.761 2°58.999 10.0988 3.680189 33.380617 -0.234439
2009-12-10 10:10:18 51°19.76 2°59.018 10.0992 3.679774 33.381347 -0.234439
2009-12-10 10:10:24 51°19.762 2°59.046 10.0977 3.67967 33.38112 -0.269263
2009-12-10 10:10:28 51°19.761 2°59.065 10.0932 3.67936 33.377981 -0.234439
2009-12-10 10:10:34 51°19.762 2°59.094 10.0931 3.679152 33.377526 -0.234439
2009-12-10 10:10:38 51°19.761 2°59.114 10.0903 3.679152 33.377526 -0.234439
2009-12-10 10:10:43 51°19.763 2°59.138 10.098 3.678945 33.375433 -0.234439
2009-12-10 10:10:49 51°19.761 2°59.167 10.1016 3.678634 33.372294 -0.234439
2009-12-10 10:10:54 51°19.763 2°59.192 10.0914 3.678427 33.369383 -0.234439
2009-12-10 10:10:59 51°19.762 2°59.216 10.0979 3.678219 33.368109 -0.234439
2009-12-10 10:11:03 51°19.763 2°59.235 10.0999 3.678116 33.367882 -0.234439
2009-12-10 10:11:09 51°19.766 2°59.264 10.093 3.678116 33.367882 -0.234439
2009-12-10 10:11:14 51°19.766 2°59.288 10.0862 3.677909 33.365789 -0.234439
2009-12-10 10:11:19 51°19.768 2°59.312 10.097 3.677805 33.363924 -0.234439
2009-12-10 10:11:23 51°19.77 2°59.331 10.0908 3.677701 33.362059 -0.199615
2009-12-10 10:11:28 51°19.773 2°59.355 10.0835 3.677598 33.361013 -0.199615
2009-12-10 10:11:34 51°19.775 2°59.384 10.0872 3.677287 33.358693 -0.199615
2009-12-10 10:11:39 51°19.781 2°59.407 10.0873 3.677287 33.358693 -0.199615
2009-12-10 10:11:43 51°19.783 2°59.425 10.0925 3.676872 33.356964 -0.164791
2009-12-10 10:11:48 51°19.786 2°59.45 10.0949 3.676354 33.354188 -0.164791
2009-12-10 10:11:53 51°19.792 2°59.472 10.0909 3.676043 33.351049 -0.164791
2009-12-10 10:11:59 51°19.794 2°59.501 10.0927 3.675629 33.3485 -0.129967
2009-12-10 10:12:03 51°19.8 2°59.519 10.0897 3.675318 33.346998 -0.164791
2009-12-10 10:12:08 51°19.804 2°59.542 10.0972 3.675318 33.346998 -0.164791
2009-12-10 10:12:13 51°19.81 2°59.565 10.0946 3.675214 33.345133 -0.129967
2009-12-10 10:12:18 51°19.814 2°59.589 10.0924 3.675007 33.34304 -0.129967
2009-12-10 10:12:24 51°19.82 2°59.615 10.0952 3.67511 33.34245 -0.129967
2009-12-10 10:12:28 51°19.823 2°59.635 10.0949 3.674799 33.339311 -0.129967
2009-12-10 10:12:34 51°19.832 2°59.661 10.092 3.674592 33.3364 -0.095143
2009-12-10 10:12:39 51°19.836 2°59.685 10.0897 3.674592 33.3364 -0.095143
2009-12-10 10:12:43 51°19.84 2°59.703 10.0945 3.674281 33.333261 -0.129967
2009-12-10 10:12:48 51°19.847 2°59.726 10.088 3.674177 33.331397 -0.129967
2009-12-10 10:12:54 51°19.851 2°59.755 10.091 3.674074 33.329533 -0.095143
2009-12-10 10:12:58 51°19.858 2°59.772 10.0898 3.673867 33.328258 -0.095143
2009-12-10 10:13:03 51°19.863 2°59.795 10.0928 3.673556 33.32512 -0.095143
2009-12-10 10:13:09 51°19.869 2°59.822 10.105 3.673556 33.32512 -0.095143
2009-12-10 10:13:14 51°19.876 2°59.844 10.1066 3.673245 33.323617 -0.095143
2009-12-10 10:13:18 51°19.879 2°59.864 10.1023 3.673037 33.321524 -0.095143
2009-12-10 10:13:23 51°19.886 2°59.886 10.0954 3.672727 33.320021 -0.095143
2009-12-10 10:13:28 51°19.892 2°59.908 10.0952 3.672623 33.318157 -0.060319
2009-12-10 10:13:34 51°19.896 2°59.936 10.0978 3.672312 33.315019 -0.095143
2009-12-10 10:13:39 51°19.903 2°59.958 10.1006 3.672312 33.315019 -0.095143
2009-12-10 10:13:44 51°19.908 2°59.981 10.0956 3.672416 33.313612 -0.095143
2009-12-10 10:13:48 51°19.911 2°60 10.0973 3.672208 33.309067 -0.095143
2009-12-10 10:13:54 51°19.92 3°0.025 10.0934 3.672208 33.307432 -0.095143
2009-12-10 10:13:59 51°19.923 3°0.049 10.088 3.672105 33.307204 -0.095143
2009-12-10 10:14:03 51°19.928 3°0.068 10.0971 3.67169 33.304654 -0.095143
2009-12-10 10:14:08 51°19.935 3°0.089 10.0926 3.67169 33.304654 -0.095143
2009-12-10 10:14:14 51°19.939 3°0.118 10.0919 3.67169 33.303019 -0.095143
2009-12-10 10:14:18 51°19.944 3°0.136 10.0938 3.671483 33.300927 -0.095143
2009-12-10 10:14:23 51°19.948 3°0.16 10.0984 3.671275 33.298018 -0.095143
2009-12-10 10:14:28 51°19.954 3°0.182 10.0935 3.670965 33.297332 -0.060319
2009-12-10 10:14:34 51°19.959 3°0.211 10.0939 3.670757 33.296057 -0.095143
2009-12-10 10:14:38 51°19.963 3°0.229 10.0965 3.670757 33.296057 -0.095143
2009-12-10 10:14:43 51°19.967 3°0.252 10.0987 3.670446 33.293736 -0.060319
2009-12-10 10:14:49 51°19.976 3°0.278 10.097 3.670136 33.291415 -0.060319
2009-12-10 10:14:54 51°19.981 3°0.301 10.0887 3.670032 33.289552 -0.060319
2009-12-10 10:14:58 51°19.986 3°0.318 10.0972 3.670032 33.288735 -0.095143
2009-12-10 10:15:03 51°19.991 3°0.342 10.0953 3.669928 33.286055 -0.095143
2009-12-10 10:15:09 51°20 3°0.367 10.0863 3.669928 33.286055 -0.095143
2009-12-10 10:15:14 51°20.004 3°0.391 10.0852 3.669617 33.283734 -0.060319
2009-12-10 10:15:18 51°20.01 3°0.408 10.0901 3.669617 33.282917 -0.095143
2009-12-10 10:15:23 51°20.018 3°0.429 10.0887 3.66941 33.280825 -0.060319
2009-12-10 10:15:28 51°20.022 3°0.452 10.0898 3.669306 33.281413 -0.060319
2009-12-10 10:15:34 51°20.032 3°0.477 10.0894 3.669203 33.281183 -0.060319
2009-12-10 10:15:39 51°20.037 3°0.499 10.0831 3.669203 33.281183 -0.060319
2009-12-10 10:15:43 51°20.042 3°0.517 10.0835 3.668995 33.281542 -0.060319
2009-12-10 10:15:48 51°20.049 3°0.538 10.081 3.668788 33.281083 -0.060319
2009-12-10 10:15:54 51°20.056 3°0.564 10.0803 3.668685 33.280854 -0.060319
2009-12-10 10:15:59 51°20.063 3°0.587 10.0818 3.668477 33.279579 -0.095143
2009-12-10 10:16:03 51°20.07 3°0.602 10.0781 3.668477 33.277945 -0.060319
2009-12-10 10:16:08 51°20.076 3°0.624 10.0801 3.668477 33.277945 -0.060319
2009-12-10 10:16:13 51°20.083 3°0.646 10.0798 3.66827 33.278304 -0.060319
2009-12-10 10:16:19 51°20.092 3°0.671 10.0802 3.668166 33.278891 -0.060319
2009-12-10 10:16:23 51°20.097 3°0.689 10.0843 3.667959 33.277616 -0.060319
2009-12-10 10:16:28 51°20.103 3°0.711 10.0728 3.667752 33.277157 -0.060319
2009-12-10 10:16:34 51°20.11 3°0.738 10.075 3.667648 33.276928 -0.060319
2009-12-10 10:16:39 51°20.119 3°0.758 10.0734 3.667648 33.276928 -0.060319
2009-12-10 10:16:43 51°20.122 3°0.778 10.0746 3.667441 33.275652 -0.060319
2009-12-10 10:16:49 51°20.132 3°0.802 10.0713 3.667337 33.275423 -0.060319
2009-12-10 10:16:54 51°20.135 3°0.827 10.069 3.667234 33.27356 -0.060319
2009-12-10 10:16:58 51°20.143 3°0.843 10.0724 3.66713 33.27333 -0.060319
2009-12-10 10:17:03 51°20.149 3°0.865 10.0641 3.667026 33.273101 -0.095143
2009-12-10 10:17:09 51°20.156 3°0.891 10.0686 3.667026 33.273101 -0.095143
2009-12-10 10:17:14 51°20.163 3°0.913 10.0562 3.666819 33.273459 -0.095143
2009-12-10 10:17:18 51°20.166 3°0.932 10.0586 3.666716 33.271596 -0.095143
2009-12-10 10:17:23 51°20.175 3°0.951 10.058 3.666612 33.272184 -0.095143
2009-12-10 10:17:29 51°20.181 3°0.978 10.061 3.666405 33.270908 -0.095143
2009-12-10 10:17:34 51°20.189 3°0.999 10.0462 3.666094 33.268585 -0.095143
2009-12-10 10:17:39 51°20.195 3°1.021 10.0391 3.666094 33.268585 -0.095143
2009-12-10 10:17:43 51°20.201 3°1.038 10.0635 3.66599 33.26999 -0.095143
2009-12-10 10:17:49 51°20.208 3°1.064 10.0517 3.665679 33.270119 -0.095143
2009-12-10 10:17:54 51°20.214 3°1.085 10.0498 3.665265 33.269201 -0.095143
2009-12-10 10:17:58 51°20.219 3°1.103 10.0337 3.66485 33.266649 -0.095143
2009-12-10 10:18:03 51°20.225 3°1.125 10.0247 3.664643 33.267007 -0.095143
2009-12-10 10:18:09 51°20.233 3°1.151 10.0457 3.664643 33.267007 -0.095143
2009-12-10 10:18:14 51°20.238 3°1.174 10.0234 3.664228 33.266089 -0.095143
2009-12-10 10:18:18 51°20.244 3°1.191 10.0193 3.663918 33.265401 -0.095143
2009-12-10 10:18:23 51°20.252 3°1.211 10.0239 3.663503 33.262848 -0.095143
2009-12-10 10:18:28 51°20.256 3°1.235 10.0228 3.662778 33.258788 -0.095143
2009-12-10 10:18:34 51°20.267 3°1.258 10.0204 3.661327 33.247399 -0.095143
2009-12-10 10:18:39 51°20.271 3°1.282 10.0217 3.661327 33.247399 -0.095143
2009-12-10 10:18:43 51°20.279 3°1.296 10.023 3.66112 33.249391 -0.095143
2009-12-10 10:18:48 51°20.283 3°1.32 10.0181 3.662052 33.263722 -0.095143
2009-12-10 10:18:54 51°20.293 3°1.344 10.0084 3.661845 33.264081 -0.095143
2009-12-10 10:18:58 51°20.296 3°1.363 10.0179 3.661327 33.262116 -0.095143
2009-12-10 10:19:03 51°20.304 3°1.383 10.0013 3.661223 33.262704 -0.095143
2009-12-10 10:19:09 51°20.309 3°1.411 10.0024 3.661223 33.262704 -0.095143
2009-12-10 10:19:14 51°20.318 3°1.431 9.9954 3.66112 33.262474 -0.095143
2009-12-10 10:19:18 51°20.32 3°1.45 9.9944 3.660912 33.261197 -0.095143
2009-12-10 10:19:23 51°20.328 3°1.47 9.9856 3.660705 33.260738 -0.095143
2009-12-10 10:19:29 51°20.334 3°1.497 9.9786 3.660602 33.261327 -0.095143
2009-12-10 10:19:34 51°20.341 3°1.517 9.9997 3.660187 33.263681 -0.095143
2009-12-10 10:19:38 51°20.346 3°1.534 9.9716 3.660187 33.263681 -0.095143
2009-12-10 10:19:43 51°20.351 3°1.558 9.9747 3.659773 33.261945 -0.095143
2009-12-10 10:19:49 51°20.36 3°1.581 9.9687 3.659151 33.260567 -0.095143
2009-12-10 10:19:54 51°20.364 3°1.604 9.9615 3.658529 33.258371 -0.095143
2009-12-10 10:19:59 51°20.372 3°1.625 9.9591 3.6577 33.254897 -0.129967
2009-12-10 10:20:03 51°20.376 3°1.642 9.9474 3.657078 33.251881 -0.129967
2009-12-10 10:20:08 51°20.382 3°1.665 9.9509 3.657078 33.251881 -0.129967
2009-12-10 10:20:14 51°20.391 3°1.689 9.9465 3.656353 33.247817 -0.129967
2009-12-10 10:20:19 51°20.395 3°1.712 9.9371 3.655731 33.243981 -0.129967
2009-12-10 10:20:24 51°20.402 3°1.733 9.9434 3.655006 33.242372 -0.129967
2009-12-10 10:20:28 51°20.406 3°1.751 9.9262 3.654177 33.240532 -0.129967
2009-12-10 10:20:34 51°20.414 3°1.777 9.9244 3.65314 33.235775 -0.129967
2009-12-10 10:20:39 51°20.419 3°1.8 9.9195 3.65314 33.235775 -0.129967
2009-12-10 10:20:43 51°20.424 3°1.816 9.909 3.652519 33.234395 -0.129967
2009-12-10 10:20:48 51°20.429 3°1.839 9.8989 3.65169 33.231734 -0.129967
2009-12-10 10:20:53 51°20.435 3°1.861 9.9039 3.65086 33.227436 -0.129967
2009-12-10 10:20:59 51°20.441 3°1.888 9.8951 3.650031 33.223136 -0.129967
2009-12-10 10:21:03 51°20.445 3°1.906 9.8931 3.649099 33.217786 -0.164791
2009-12-10 10:21:08 51°20.453 3°1.926 9.8959 3.649099 33.217786 -0.164791
2009-12-10 10:21:13 51°20.457 3°1.95 9.8876 3.647959 33.210336 -0.164791
2009-12-10 10:21:19 51°20.464 3°1.976 9.8772 3.646612 33.206519 -0.164791
2009-12-10 10:21:23 51°20.469 3°1.993 9.8683 3.645265 33.198604 -0.164791
2009-12-10 10:21:28 51°20.474 3°2.015 9.8699 3.643917 33.18905 -0.129967
2009-12-10 10:21:33 51°20.48 3°2.037 9.8628 3.642674 33.183001 -0.164791
2009-12-10 10:21:39 51°20.488 3°2.063 9.8618 3.642674 33.183001 -0.164791
2009-12-10 10:21:43 51°20.491 3°2.081 9.8548 3.64143 33.173674 -0.164791
2009-12-10 10:21:49 51°20.5 3°2.105 9.8409 3.640187 33.165166 -0.164791
2009-12-10 10:21:54 51°20.505 3°2.127 9.8384 3.638943 33.159112 -0.164791
2009-12-10 10:21:58 51°20.511 3°2.145 9.8362 3.6377 33.153056 -0.164791
2009-12-10 10:22:03 51°20.517 3°2.166 9.8234 3.636249 33.144079 -0.164791
2009-12-10 10:22:08 51°20.522 3°2.189 9.8306 3.636249 33.144079 -0.164791
2009-12-10 10:22:14 51°20.531 3°2.214 9.8039 3.635316 33.138716 -0.164791
2009-12-10 10:22:18 51°20.533 3°2.233 9.8151 3.633658 33.130908 -0.164791
2009-12-10 10:22:23 51°20.541 3°2.253 9.8042 3.632311 33.122157 -0.164791
2009-12-10 10:22:28 51°20.546 3°2.275 9.8018 3.630653 33.111888 -0.164791
2009-12-10 10:22:34 51°20.554 3°2.301 9.7957 3.628373 33.096127 -0.199615
2009-12-10 10:22:39 51°20.56 3°2.323 9.7817 3.628373 33.096127 -0.199615
2009-12-10 10:22:43 51°20.565 3°2.34 9.7806 3.626715 33.085033 -0.164791
2009-12-10 10:22:48 51°20.569 3°2.363 9.7761 3.624643 33.072185 -0.164791
2009-12-10 10:22:54 51°20.579 3°2.387 9.7608 3.622777 33.058164 -0.164791
2009-12-10 10:22:59 51°20.585 3°2.409 9.7647 3.621119 33.047062 -0.164791
2009-12-10 10:23:03 51°20.589 3°2.426 9.7779 3.619047 33.03175 -0.164791
2009-12-10 10:23:08 51°20.597 3°2.446 9.7488 3.619047 33.03175 -0.164791
2009-12-10 10:23:13 51°20.601 3°2.47 9.758 3.616871 33.015383 -0.164791
2009-12-10 10:23:19 51°20.61 3°2.494 9.7523 3.615109 33.005672 -0.164791
2009-12-10 10:23:23 51°20.614 3°2.512 9.7376 3.612933 32.98848 -0.164791
2009-12-10 10:23:28 51°20.621 3°2.533 9.7383 3.610861 32.973155 -0.164791
2009-12-10 10:23:33 51°20.626 3°2.555 9.7406 3.608892 32.958878 -0.164791
2009-12-10 10:23:39 51°20.635 3°2.58 9.7199 3.608892 32.958878 -0.164791
2009-12-10 10:23:43 51°20.638 3°2.598 9.7237 3.607337 32.946359 -0.164791
2009-12-10 10:23:48 51°20.647 3°2.618 9.7171 3.605887 32.936523 -0.199615
2009-12-10 10:23:54 51°20.653 3°2.644 9.7021 3.604332 32.924817 -0.164791
2009-12-10 10:23:58 51°20.659 3°2.661 9.7005 3.602053 32.906556 -0.164791
2009-12-10 10:24:03 51°20.663 3°2.684 9.703 3.600187 32.890873 -0.164791
2009-12-10 10:24:08 51°20.672 3°2.704 9.6975 3.600187 32.890873 -0.164791
2009-12-10 10:24:14 51°20.676 3°2.732 9.7037 3.598426 32.881132 -0.164791
2009-12-10 10:24:18 51°20.682 3°2.748 9.6891 3.596043 32.862625 -0.199615
2009-12-10 10:24:23 51°20.686 3°2.77 9.6812 3.594177 32.851009 -0.164791
2009-12-10 10:24:29 51°20.694 3°2.796 9.6746 3.592105 32.837283 -0.164791
2009-12-10 10:24:34 51°20.698 3°2.819 9.6757 3.590033 32.821923 -0.164791
2009-12-10 10:24:38 51°20.702 3°2.837 9.6707 3.590033 32.821923 -0.164791
2009-12-10 10:24:43 51°20.708 3°2.859 9.6732 3.588686 32.810675 -0.164791
2009-12-10 10:24:48 51°20.715 3°2.879 9.6647 3.587028 32.797081 -0.164791
2009-12-10 10:24:54 51°20.721 3°2.906 9.6585 3.58537 32.785113 -0.164791
2009-12-10 10:24:59 51°20.727 3°2.928 9.6514 3.584023 32.777118 -0.164791
2009-12-10 10:25:03 51°20.73 3°2.946 9.6617 3.582261 32.766534 -0.164791
2009-12-10 10:25:08 51°20.737 3°2.967 9.6447 3.582261 32.766534 -0.164791
2009-12-10 10:25:13 51°20.74 3°2.99 9.6371 3.5805 32.753506 -0.164791
2009-12-10 10:25:19 51°20.747 3°3.016 9.6372 3.578946 32.741769 -0.164791
2009-12-10 10:25:23 51°20.751 3°3.035 9.6299 3.577495 32.731897 -0.164791
2009-12-10 10:25:28 51°20.755 3°3.057 9.6352 3.575941 32.72097 -0.164791
2009-12-10 10:25:34 51°20.761 3°3.084 9.6306 3.57449 32.709468 -0.164791
2009-12-10 10:25:38 51°20.763 3°3.103 9.6381 3.57449 32.709468 -0.164791
2009-12-10 10:25:43 51°20.77 3°3.123 9.6253 3.573765 32.705342 -0.164791
2009-12-10 10:25:49 51°20.774 3°3.151 9.619 3.5719 32.692061 -0.164791
2009-12-10 10:25:54 51°20.779 3°3.173 9.6286 3.570449 32.682993 -0.164791
2009-12-10 10:25:58 51°20.784 3°3.19 9.6202 3.569206 32.673593 -0.164791
2009-12-10 10:26:03 51°20.786 3°3.214 9.6303 3.56817 32.666301 -0.164791
2009-12-10 10:26:09 51°20.794 3°3.238 9.6174 3.56817 32.666301 -0.164791
2009-12-10 10:26:14 51°20.796 3°3.262 9.6108 3.567237 32.658437 -0.164791
2009-12-10 10:26:18 51°20.802 3°3.278 9.6136 3.566201 32.651144 -0.164791
2009-12-10 10:26:23 51°20.807 3°3.3 9.6067 3.564958 32.640928 -0.164791
2009-12-10 10:26:29 51°20.812 3°3.326 9.6188 3.564025 32.633874 -0.164791
2009-12-10 10:26:34 51°20.818 3°3.347 9.603 3.563093 32.626008 -0.164791
2009-12-10 10:26:39 51°20.822 3°3.37 9.5955 3.563093 32.626008 -0.164791
2009-12-10 10:26:43 51°20.827 3°3.387 9.6024 3.562471 32.621305 -0.129967
2009-12-10 10:26:49 51°20.832 3°3.413 9.6016 3.561435 32.613196 -0.164791
2009-12-10 10:26:54 51°20.837 3°3.435 9.6021 3.559984 32.602491 -0.129967
2009-12-10 10:26:59 51°20.843 3°3.456 9.5884 3.559155 32.595677 -0.164791
2009-12-10 10:27:03 51°20.846 3°3.475 9.5825 3.558016 32.5857 -0.164791
2009-12-10 10:27:08 51°20.85 3°3.497 9.6057 3.558016 32.5857 -0.164791
2009-12-10 10:27:14 51°20.856 3°3.523 9.5908 3.556876 32.577344 -0.129967
2009-12-10 10:27:19 51°20.861 3°3.545 9.5764 3.556047 32.57134 -0.164791
2009-12-10 10:27:23 51°20.864 3°3.564 9.5919 3.555218 32.563714 -0.129967
2009-12-10 10:27:28 51°20.871 3°3.583 9.5771 3.554182 32.555599 -0.164791
2009-12-10 10:27:33 51°20.874 3°3.606 9.5773 3.55242 32.544154 -0.129967
2009-12-10 10:27:39 51°20.882 3°3.631 9.5741 3.55242 32.544154 -0.129967
2009-12-10 10:27:43 51°20.885 3°3.648 9.5813 3.551592 32.536526 -0.129967
2009-12-10 10:27:48 51°20.891 3°3.669 9.5788 3.550659 32.528654 -0.129967
2009-12-10 10:27:53 51°20.895 3°3.692 9.5739 3.549623 32.521347 -0.129967
2009-12-10 10:27:59 51°20.902 3°3.717 9.5627 3.548794 32.514528 -0.129967
2009-12-10 10:28:03 51°20.904 3°3.736 9.5621 3.547344 32.503 -0.129967
2009-12-10 10:28:08 51°20.911 3°3.756 9.5535 3.547344 32.503 -0.129967
2009-12-10 10:28:13 51°20.915 3°3.778 9.5454 3.546307 32.49488 -0.129967
2009-12-10 10:28:19 51°20.921 3°3.805 9.5497 3.54496 32.482785 -0.129967
2009-12-10 10:28:23 51°20.925 3°3.823 9.5534 3.543924 32.474664 -0.129967
2009-12-10 10:28:28 51°20.93 3°3.845 9.5371 3.542577 32.464996 -0.129967
2009-12-10 10:28:34 51°20.935 3°3.872 9.5365 3.541127 32.453461 -0.129967
2009-12-10 10:28:39 51°20.94 3°3.894 9.5583 3.541127 32.453461 -0.129967
2009-12-10 10:28:43 51°20.945 3°3.911 9.5467 3.53978 32.442981 -0.129967
2009-12-10 10:28:49 51°20.949 3°3.939 9.5456 3.53833 32.433871 -0.129967
2009-12-10 10:28:54 51°20.955 3°3.96 9.5343 3.536983 32.425005 -0.129967
2009-12-10 10:28:58 51°20.959 3°3.978 9.5263 3.535947 32.416877 -0.129967
2009-12-10 10:29:03 51°20.964 3°4 9.5343 3.534911 32.410366 -0.129967
2009-12-10 10:29:08 51°20.968 3°4.022 9.5295 3.534911 32.410366 -0.129967
2009-12-10 10:29:14 51°20.975 3°4.048 9.5294 3.534082 32.401923 -0.129967
2009-12-10 10:29:18 51°20.977 3°4.067 9.524 3.533253 32.39348 -0.129967
2009-12-10 10:29:23 51°20.984 3°4.088 9.522 3.532528 32.387709 -0.129967
2009-12-10 10:29:28 51°20.988 3°4.11 9.5139 3.531595 32.381442 -0.129967
2009-12-10 10:29:33 51°20.991 3°4.133 9.5112 3.52973 32.365675 -0.129967
2009-12-10 10:29:39 51°20.999 3°4.158 9.5017 3.52973 32.365675 -0.129967
2009-12-10 10:29:43 51°21.003 3°4.176 9.5141 3.528694 32.357543 -0.129967
2009-12-10 10:29:48 51°21.006 3°4.199 9.5242 3.527347 32.347052 -0.129967
2009-12-10 10:29:54 51°21.015 3°4.224 9.5037 3.526415 32.339166 -0.129967
2009-12-10 10:29:59 51°21.018 3°4.248 9.4979 3.525068 32.327866 -0.129967
2009-12-10 10:30:03 51°21.023 3°4.264 9.5008 3.52341 32.315818 -0.129967
2009-12-10 10:30:09 51°21.028 3°4.29 9.4915 3.52341 32.315818 -0.129967
2009-12-10 10:30:14 51°21.033 3°4.312 9.493 3.521442 32.3006 -0.129967
2009-12-10 10:30:18 51°21.037 3°4.329 9.4904 3.519991 32.28824 -0.129967
2009-12-10 10:30:24 51°21.043 3°4.355 9.4882 3.519473 32.282155 -0.129967
2009-12-10 10:30:29 51°21.048 3°4.377 9.4927 3.51823 32.271906 -0.129967
2009-12-10 10:30:34 51°21.053 3°4.4 9.488 3.516779 32.261155 -0.129967
2009-12-10 10:30:38 51°21.056 3°4.417 9.4861 3.516779 32.261155 -0.129967
2009-12-10 10:30:44 51°21.063 3°4.443 9.4808 3.515433 32.251459 -0.129967
2009-12-10 10:30:48 51°21.066 3°4.461 9.4765 3.514397 32.244929 -0.129967
2009-12-10 10:30:54 51°21.072 3°4.487 9.4834 3.513257 32.23573 -0.129967
2009-12-10 10:30:59 51°21.077 3°4.51 9.4667 3.512428 32.227283 -0.129967
2009-12-10 10:31:03 51°21.08 3°4.528 9.503 3.511496 32.220196 -0.129967
2009-12-10 10:31:08 51°21.087 3°4.548 9.475 3.511496 32.220196 -0.129967
2009-12-10 10:31:14 51°21.09 3°4.577 9.4658 3.510356 32.209386 -0.129967
2009-12-10 10:31:18 51°21.096 3°4.593 9.4712 3.50932 32.201242 -0.129967
2009-12-10 10:31:23 51°21.098 3°4.616 9.4553 3.508077 32.191789 -0.129967
2009-12-10 10:31:28 51°21.105 3°4.638 9.4637 3.506523 32.179168 -0.129967
2009-12-10 10:31:34 51°21.11 3°4.664 9.4493 3.505383 32.168357 -0.129967
2009-12-10 10:31:39 51°21.114 3°4.686 9.4497 3.505383 32.168357 -0.129967
2009-12-10 10:31:43 51°21.119 3°4.704 9.4459 3.505176 32.165441 -0.129967
2009-12-10 10:31:48 51°21.122 3°4.727 9.4535 3.503518 32.152565 -0.129967
2009-12-10 10:31:54 51°21.128 3°4.754 9.4521 3.502172 32.141249 -0.129967
2009-12-10 10:31:59 51°21.133 3°4.775 9.4516 3.500825 32.131538 -0.129967
2009-12-10 10:32:03 51°21.136 3°4.793 9.4517 3.499271 32.119714 -0.129967
2009-12-10 10:32:09 51°21.142 3°4.819 9.448 3.499271 32.119714 -0.129967
2009-12-10 10:32:14 51°21.146 3°4.842 9.4387 3.498028 32.111859 -0.129967
2009-12-10 10:32:18 51°21.15 3°4.86 9.4406 3.496474 32.100031 -0.129967
2009-12-10 10:32:23 51°21.156 3°4.88 9.4511 3.495541 32.092131 -0.129967
2009-12-10 10:32:29 51°21.16 3°4.908 9.441 3.494505 32.081568 -0.129967
2009-12-10 10:32:34 51°21.167 3°4.929 9.4309 3.493676 32.074724 -0.129967
2009-12-10 10:32:38 51°21.169 3°4.948 9.4258 3.493676 32.074724 -0.129967
2009-12-10 10:32:43 51°21.176 3°4.968 9.4261 3.492848 32.066274 -0.129967
2009-12-10 10:32:49 51°21.18 3°4.996 9.4191 3.491708 32.057063 -0.129967
2009-12-10 10:32:54 51°21.188 3°5.016 9.4176 3.490879 32.049415 -0.129967
2009-12-10 10:32:58 51°21.19 3°5.035 9.4123 3.490154 32.042022 -0.129967
2009-12-10 10:33:03 51°21.195 3°5.055 9.4078 3.489222 32.035723 -0.129967
2009-12-10 10:33:09 51°21.201 3°5.082 9.3994 3.489222 32.035723 -0.129967
2009-12-10 10:33:14 51°21.206 3°5.103 9.3998 3.487875 32.027602 -0.129967
2009-12-10 10:33:18 51°21.21 3°5.121 9.3951 3.486839 32.021847 -0.129967
2009-12-10 10:33:23 51°21.213 3°5.144 9.4005 3.485492 32.01212 -0.129967
2009-12-10 10:33:29 51°21.221 3°5.168 9.3879 3.484456 32.005562 -0.129967
2009-12-10 10:33:34 51°21.224 3°5.192 9.3931 3.483213 31.996889 -0.129967
2009-12-10 10:33:39 51°21.232 3°5.211 9.3896 3.483213 31.996889 -0.129967
2009-12-10 10:33:43 51°21.234 3°5.229 9.3848 3.481866 31.986356 -0.129967
2009-12-10 10:33:48 51°21.239 3°5.252 9.403 3.480312 31.975311 -0.129967
2009-12-10 10:33:54 51°21.246 3°5.276 9.3853 3.478966 31.966377 -0.129967
2009-12-10 10:33:59 51°21.249 3°5.298 9.3752 3.477723 31.956097 -0.129967
2009-12-10 10:34:03 51°21.253 3°5.315 9.3743 3.476687 31.94953 -0.129967
2009-12-10 10:34:08 51°21.259 3°5.336 9.3749 3.476687 31.94953 -0.129967
2009-12-10 10:34:14 51°21.263 3°5.362 9.3609 3.475858 31.941875 -0.129967
2009-12-10 10:34:19 51°21.268 3°5.384 9.3611 3.474304 31.929221 -0.129967